Home > Products > Valid Products > TAF

000
FTUS41 KBOX 230523
TAFBDL
TAF
KBDL 230523Z 2306/2412 32010KT P6SM FEW250
     FM231400 29010G21KT P6SM SKC
     FM232300 24008KT P6SM SKC
     FM240600 18005KT P6SM FEW140=



000
FTUS41 KBOX 230523
TAFBOS
TAF
KBOS 230523Z 2306/2412 30014G22KT P6SM FEW250
     FM231900 26013KT P6SM FEW250=



000
FTUS41 KBOX 230523
TAFORH
TAF
KORH 230523Z 2306/2406 28012KT P6SM FEW250
     FM231400 30014G22KT P6SM SKC
     FM232200 26009KT P6SM SKC=



000
FTUS41 KBOX 230523
TAFBAF
TAF
KBAF 230523Z 2306/2406 31004KT P6SM FEW250
     FM231400 32010G20KT P6SM SKC
     FM232200 28009KT P6SM SKC
     FM240000 24005KT P6SM SKC=



000
FTUS41 KBOX 230523
TAFBDL
TAF
KBDL 230523Z 2306/2412 32010KT P6SM FEW250
     FM231400 29010G21KT P6SM SKC
     FM232300 24008KT P6SM SKC
     FM240600 18005KT P6SM FEW140=



000
FTUS41 KBOX 230523
TAFACK
TAF
KACK 230523Z 2306/2406 32013G24KT P6SM SCT100
     FM231900 28015KT P6SM SKC
     FM232300 24012KT P6SM SKC=



000
FTUS41 KBOX 230523
TAFPVD
TAF
KPVD 230523Z 2306/2406 32010G22KT P6SM FEW250
     FM231800 28011G19KT P6SM FEW250
     FM232200 24011KT P6SM FEW250
     FM240300 22007KT P6SM FEW200=



000
FTUS41 KBOX 230523
TAFBAF
TAF
KBAF 230523Z 2306/2406 31004KT P6SM FEW250
     FM231400 32010G20KT P6SM SKC
     FM232200 28009KT P6SM SKC
     FM240000 24005KT P6SM SKC=



000
FTUS41 KBOX 230523
TAFORH
TAF
KORH 230523Z 2306/2406 28012KT P6SM FEW250
     FM231400 30014G22KT P6SM SKC
     FM232200 26009KT P6SM SKC=



000
FTUS41 KBOX 230523
TAFBOS
TAF
KBOS 230523Z 2306/2412 30014G22KT P6SM FEW250
     FM231900 26013KT P6SM FEW250=



000
FTUS41 KBOX 230523
TAFPVD
TAF
KPVD 230523Z 2306/2406 32010G22KT P6SM FEW250
     FM231800 28011G19KT P6SM FEW250
     FM232200 24011KT P6SM FEW250
     FM240300 22007KT P6SM FEW200=



000
FTUS41 KBOX 230523
TAFPVD
TAF
KPVD 230523Z 2306/2406 32010G22KT P6SM FEW250
     FM231800 28011G19KT P6SM FEW250
     FM232200 24011KT P6SM FEW250
     FM240300 22007KT P6SM FEW200=



000
FTUS41 KBOX 230523
TAFORH
TAF
KORH 230523Z 2306/2406 28012KT P6SM FEW250
     FM231400 30014G22KT P6SM SKC
     FM232200 26009KT P6SM SKC=



000
FTUS41 KBOX 230523
TAFBDL
TAF
KBDL 230523Z 2306/2412 32010KT P6SM FEW250
     FM231400 29010G21KT P6SM SKC
     FM232300 24008KT P6SM SKC
     FM240600 18005KT P6SM FEW140=



000
FTUS41 KBOX 230523
TAFBAF
TAF
KBAF 230523Z 2306/2406 31004KT P6SM FEW250
     FM231400 32010G20KT P6SM SKC
     FM232200 28009KT P6SM SKC
     FM240000 24005KT P6SM SKC=



000
FTUS41 KBOX 230523
TAFBOS
TAF
KBOS 230523Z 2306/2412 30014G22KT P6SM FEW250
     FM231900 26013KT P6SM FEW250=



000
FTUS41 KBOX 230523
TAFACK
TAF
KACK 230523Z 2306/2406 32013G24KT P6SM SCT100
     FM231900 28015KT P6SM SKC
     FM232300 24012KT P6SM SKC=



000
FTUS41 KBOX 222322
TAFBOS
TAF
KBOS 222322Z 2300/2406 30014G25KT P6SM FEW250
     FM230500 32012KT P6SM FEW050
     FM231700 27010G19KT P6SM SKC
     FM240200 24008KT P6SM FEW150=



000
FTUS41 KBOX 222322
TAFBAF
TAF
KBAF 222322Z 2300/2324 31010G24KT P6SM SKC
     FM230200 31008KT P6SM FEW250
     FM232300 27007KT P6SM SKC=



000
FTUS41 KBOX 222322
TAFBDL
TAF
KBDL 222322Z 2300/2406 31015G25KT P6SM SKC
     FM230600 31005KT P6SM SKC
     FM231500 30010KT P6SM SKC
     FM232100 26007KT P6SM SKC=



000
FTUS41 KBOX 222322
TAFACK
TAF
KACK 222322Z 2300/2324 26015KT P6SM SCT070
     FM230400 30012G20KT P6SM SCT080
     FM230600 32015G25KT P6SM FEW070
     FM231700 28014G25KT P6SM SKC=



000
FTUS41 KBOX 222322
TAFBOS
TAF
KBOS 222322Z 2300/2406 30014G25KT P6SM FEW250
     FM230500 32012KT P6SM FEW050
     FM231700 27010G19KT P6SM SKC
     FM240200 24008KT P6SM FEW150=



000
FTUS41 KBOX 222322
TAFORH
TAF
KORH 222322Z 2300/2324 29015G26KT P6SM SKC
     FM230500 32010G18KT P6SM FEW250
     FM231700 28010KT P6SM SKC=



000
FTUS41 KBOX 222322
TAFPVD
TAF
KPVD 222322Z 2300/2324 31010G20KT P6SM SKC
     FM230300 31008KT P6SM SKC
     FM231800 28010G17KT P6SM SKC
     FM232200 24009KT P6SM SKC=



000
FTUS41 KBOX 222322
TAFACK
TAF
KACK 222322Z 2300/2324 26015KT P6SM SCT070
     FM230400 30012G20KT P6SM SCT080
     FM230600 32015G25KT P6SM FEW070
     FM231700 28014G25KT P6SM SKC=



000
FTUS41 KBOX 222322
TAFBDL
TAF
KBDL 222322Z 2300/2406 31015G25KT P6SM SKC
     FM230600 31005KT P6SM SKC
     FM231500 30010KT P6SM SKC
     FM232100 26007KT P6SM SKC=



000
FTUS41 KBOX 222322
TAFBAF
TAF
KBAF 222322Z 2300/2324 31010G24KT P6SM SKC
     FM230200 31008KT P6SM FEW250
     FM232300 27007KT P6SM SKC=



000
FTUS41 KBOX 222322
TAFPVD
TAF
KPVD 222322Z 2300/2324 31010G20KT P6SM SKC
     FM230300 31008KT P6SM SKC
     FM231800 28010G17KT P6SM SKC
     FM232200 24009KT P6SM SKC=



000
FTUS41 KBOX 222322
TAFORH
TAF
KORH 222322Z 2300/2324 29015G26KT P6SM SKC
     FM230500 32010G18KT P6SM FEW250
     FM231700 28010KT P6SM SKC=



000
FTUS41 KBOX 222322
TAFBAF
TAF
KBAF 222322Z 2300/2324 31010G24KT P6SM SKC
     FM230200 31008KT P6SM FEW250
     FM232300 27007KT P6SM SKC=



000
FTUS41 KBOX 222322
TAFBDL
TAF
KBDL 222322Z 2300/2406 31015G25KT P6SM SKC
     FM230600 31005KT P6SM SKC
     FM231500 30010KT P6SM SKC
     FM232100 26007KT P6SM SKC=



000
FTUS41 KBOX 222322
TAFBDL
TAF
KBDL 222322Z 2300/2406 31015G25KT P6SM SKC
     FM230600 31005KT P6SM SKC
     FM231500 30010KT P6SM SKC
     FM232100 26007KT P6SM SKC=



000
FTUS41 KBOX 222322
TAFBOS
TAF
KBOS 222322Z 2300/2406 30014G25KT P6SM FEW250
     FM230500 32012KT P6SM FEW050
     FM231700 27010G19KT P6SM SKC
     FM240200 24008KT P6SM FEW150=



000
FTUS41 KBOX 222322
TAFORH
TAF
KORH 222322Z 2300/2324 29015G26KT P6SM SKC
     FM230500 32010G18KT P6SM FEW250
     FM231700 28010KT P6SM SKC=



000
FTUS41 KBOX 222322
TAFPVD
TAF
KPVD 222322Z 2300/2324 31010G20KT P6SM SKC
     FM230300 31008KT P6SM SKC
     FM231800 28010G17KT P6SM SKC
     FM232200 24009KT P6SM SKC=



000
FTUS41 KBOX 222322
TAFACK
TAF
KACK 222322Z 2300/2324 26015KT P6SM SCT070
     FM230400 30012G20KT P6SM SCT080
     FM230600 32015G25KT P6SM FEW070
     FM231700 28014G25KT P6SM SKC=



000
FTUS41 KBOX 222322
TAFPVD
TAF
KPVD 222322Z 2300/2324 31010G20KT P6SM SKC
     FM230300 31008KT P6SM SKC
     FM231800 28010G17KT P6SM SKC
     FM232200 24009KT P6SM SKC=



000
FTUS41 KBOX 222322
TAFBAF
TAF
KBAF 222322Z 2300/2324 31010G24KT P6SM SKC
     FM230200 31008KT P6SM FEW250
     FM232300 27007KT P6SM SKC=



000
FTUS41 KBOX 222322
TAFACK
TAF
KACK 222322Z 2300/2324 26015KT P6SM SCT070
     FM230400 30012G20KT P6SM SCT080
     FM230600 32015G25KT P6SM FEW070
     FM231700 28014G25KT P6SM SKC=



000
FTUS41 KBOX 222322
TAFBOS
TAF
KBOS 222322Z 2300/2406 30014G25KT P6SM FEW250
     FM230500 32012KT P6SM FEW050
     FM231700 27010G19KT P6SM SKC
     FM240200 24008KT P6SM FEW150=



000
FTUS41 KBOX 222322
TAFORH
TAF
KORH 222322Z 2300/2324 29015G26KT P6SM SKC
     FM230500 32010G18KT P6SM FEW250
     FM231700 28010KT P6SM SKC=



000
FTUS41 KBOX 222102 AAD
TAFBOS
TAF AMD
KBOS 222102Z 2221/2324 30014G25KT P6SM FEW100
     FM230000 27009KT P6SM FEW250=



000
FTUS41 KBOX 222102 AAD
TAFBOS
TAF AMD
KBOS 222102Z 2221/2324 30014G25KT P6SM FEW100
     FM230000 27009KT P6SM FEW250=



000
FTUS41 KBOX 222102 AAD
TAFBOS
TAF AMD
KBOS 222102Z 2221/2324 30014G25KT P6SM FEW100
     FM230000 27009KT P6SM FEW250=



000
FTUS41 KBOX 222037 AAB
TAFBDL
TAF AMD
KBDL 222037Z 2221/2324 31016G25KT P6SM SCT100
     FM230300 32008KT P6SM FEW250
     FM231800 28010G18KT P6SM SKC
     FM232300 24007KT P6SM SKC=



000
FTUS41 KBOX 222037 AAB
TAFPVD
TAF AMD
KPVD 222037Z 2221/2318 30012G23KT P6SM SCT100
     FM230300 31011KT P6SM SCT250
     FM231300 31014G22KT P6SM FEW250=



000
FTUS41 KBOX 222037 AAC
TAFBAF
TAF AMD
KBAF 222037Z 2221/2318 30017G26KT P6SM FEW090
     FM230300 32007KT P6SM FEW250
     FM231500 31010G18KT P6SM SKC=



000
FTUS41 KBOX 222037 AAC
TAFACK
TAF AMD
KACK 222037Z 2221/2318 22011KT P6SM SKC
     FM230200 28012G22KT P6SM SCT070
     FM230900 32014G21KT P6SM FEW250
     FM231700 28014KT P6SM SKC=



000
FTUS41 KBOX 222037 AAC
TAFBOS
TAF AMD
KBOS 222037Z 2221/2324 27014G24KT P6SM FEW100
     FM232200 27009KT P6SM FEW250=



000
FTUS41 KBOX 222037 AAB
TAFBDL
TAF AMD
KBDL 222037Z 2221/2324 31016G25KT P6SM SCT100
     FM230300 32008KT P6SM FEW250
     FM231800 28010G18KT P6SM SKC
     FM232300 24007KT P6SM SKC=



000
FTUS41 KBOX 222037 AAB
TAFORH
TAF AMD
KORH 222037Z 2221/2318 28015G28KT P6SM SKC
     FM230600 31009KT P6SM FEW250
     FM231300 30015G22KT P6SM SKC=



000
FTUS41 KBOX 222037 AAB
TAFPVD
TAF AMD
KPVD 222037Z 2221/2318 30012G23KT P6SM SCT100
     FM230300 31011KT P6SM SCT250
     FM231300 31014G22KT P6SM FEW250=



000
FTUS41 KBOX 222037 AAC
TAFBOS
TAF AMD
KBOS 222037Z 2221/2324 27014G24KT P6SM FEW100
     FM232200 27009KT P6SM FEW250=



000
FTUS41 KBOX 222037 AAC
TAFBAF
TAF AMD
KBAF 222037Z 2221/2318 30017G26KT P6SM FEW090
     FM230300 32007KT P6SM FEW250
     FM231500 31010G18KT P6SM SKC=



000
FTUS41 KBOX 222037 AAB
TAFORH
TAF AMD
KORH 222037Z 2221/2318 28015G28KT P6SM SKC
     FM230600 31009KT P6SM FEW250
     FM231300 30015G22KT P6SM SKC=



000
FTUS41 KBOX 222037 AAC
TAFACK
TAF AMD
KACK 222037Z 2221/2318 22011KT P6SM SKC
     FM230200 28012G22KT P6SM SCT070
     FM230900 32014G21KT P6SM FEW250
     FM231700 28014KT P6SM SKC=



000
FTUS41 KBOX 221741 RRA
TAFBOS
TAF
KBOS 221741Z 2218/2324 29011KT P6SM SCT080
     FM222100 28012G23KT P6SM SCT070
     FM232200 27009KT P6SM FEW250=



000
FTUS41 KBOX 221741 RRA
TAFPVD
TAF
KPVD 221741Z 2218/2318 27014G22KT P6SM FEW030 FEW080=



000
FTUS41 KBOX 221741 RRA
TAFACK
TAF
KACK 221741Z 2218/2318 23013KT P6SM SKC
     FM230200 28012G22KT P6SM SCT070
     FM230900 32014G21KT P6SM FEW250
     FM231700 28014KT P6SM SKC=



000
FTUS41 KBOX 221741 RRA
TAFACK
TAF
KACK 221741Z 2218/2318 23013KT P6SM SKC
     FM230200 28012G22KT P6SM SCT070
     FM230900 32014G21KT P6SM FEW250
     FM231700 28014KT P6SM SKC=



000
FTUS41 KBOX 221741 RRA
TAFBAF
TAF
KBAF 221741Z 2218/2318 29013G21KT P6SM SCT080
     FM230300 32007KT P6SM FEW250
     FM231500 31010G18KT P6SM SKC=



000
FTUS41 KBOX 221741 RRA
TAFPVD
TAF
KPVD 221741Z 2218/2318 27014G22KT P6SM FEW030 FEW080=



000
FTUS41 KBOX 221741 RRA
TAFBAF
TAF
KBAF 221741Z 2218/2318 29013G21KT P6SM SCT080
     FM230300 32007KT P6SM FEW250
     FM231500 31010G18KT P6SM SKC=



000
FTUS41 KBOX 221741 RRA
TAFBDL
TAF
KBDL 221741Z 2218/2324 27015G23KT P6SM SCT080
     FM230300 32008KT P6SM FEW250
     FM231800 28010G18KT P6SM SKC
     FM232300 24007KT P6SM SKC=



000
FTUS41 KBOX 221741 RRA
TAFBOS
TAF
KBOS 221741Z 2218/2324 29011KT P6SM SCT080
     FM222100 28012G23KT P6SM SCT070
     FM232200 27009KT P6SM FEW250=



000
FTUS41 KBOX 221741 RRA
TAFBDL
TAF
KBDL 221741Z 2218/2324 27015G23KT P6SM SCT080
     FM230300 32008KT P6SM FEW250
     FM231800 28010G18KT P6SM SKC
     FM232300 24007KT P6SM SKC=



000
FTUS41 KBOX 221741 RRA
TAFORH
TAF
KORH 221741Z 2218/2318 27015G23KT P6SM SCT070 SCT080=



000
FTUS41 KBOX 221741 RRA
TAFORH
TAF
KORH 221741Z 2218/2318 27015G23KT P6SM SCT070 SCT080=



000
FTUS41 KBOX 221741 RRA
TAFACK
TAF
KACK 221741Z 2218/2318 23013KT P6SM SKC
     FM230200 28012G22KT P6SM SCT070
     FM230900 32014G21KT P6SM FEW250
     FM231700 28014KT P6SM SKC=



000
FTUS41 KBOX 221741 RRA
TAFBAF
TAF
KBAF 221741Z 2218/2318 29013G21KT P6SM SCT080
     FM230300 32007KT P6SM FEW250
     FM231500 31010G18KT P6SM SKC=



000
FTUS41 KBOX 221741 RRA
TAFPVD
TAF
KPVD 221741Z 2218/2318 27014G22KT P6SM FEW030 FEW080=



000
FTUS41 KBOX 221741 RRA
TAFBOS
TAF
KBOS 221741Z 2218/2324 29011KT P6SM SCT080
     FM222100 28012G23KT P6SM SCT070
     FM232200 27009KT P6SM FEW250=



000
FTUS41 KBOX 221741 RRA
TAFBAF
TAF
KBAF 221741Z 2218/2318 29013G21KT P6SM SCT080
     FM230300 32007KT P6SM FEW250
     FM231500 31010G18KT P6SM SKC=



000
FTUS41 KBOX 221741 RRA
TAFPVD
TAF
KPVD 221741Z 2218/2318 27014G22KT P6SM FEW030 FEW080=



000
FTUS41 KBOX 221741 RRA
TAFACK
TAF
KACK 221741Z 2218/2318 23013KT P6SM SKC
     FM230200 28012G22KT P6SM SCT070
     FM230900 32014G21KT P6SM FEW250
     FM231700 28014KT P6SM SKC=



000
FTUS41 KBOX 221741 RRA
TAFORH
TAF
KORH 221741Z 2218/2318 27015G23KT P6SM SCT070 SCT080=



000
FTUS41 KBOX 221741 RRA
TAFBDL
TAF
KBDL 221741Z 2218/2324 27015G23KT P6SM SCT080
     FM230300 32008KT P6SM FEW250
     FM231800 28010G18KT P6SM SKC
     FM232300 24007KT P6SM SKC=



000
FTUS41 KBOX 221741 RRA
TAFORH
TAF
KORH 221741Z 2218/2318 27015G23KT P6SM SCT070 SCT080=



000
FTUS41 KBOX 221741 RRA
TAFBOS
TAF
KBOS 221741Z 2218/2324 29011KT P6SM SCT080
     FM222100 28012G23KT P6SM SCT070
     FM232200 27009KT P6SM FEW250=



000
FTUS41 KBOX 221741 RRA
TAFBDL
TAF
KBDL 221741Z 2218/2324 27015G23KT P6SM SCT080
     FM230300 32008KT P6SM FEW250
     FM231800 28010G18KT P6SM SKC
     FM232300 24007KT P6SM SKC=



000
FTUS41 KBOX 221526 AAB
TAFACK
TAF AMD
KACK 221526Z 2215/2312 32006KT P6SM SCT250
     FM221800 24012KT P6SM FEW250
     FM222100 25013G25KT P6SM FEW060
     FM230300 29012G27KT P6SM SCT080=



000
FTUS41 KBOX 221526 AAB
TAFBAF
TAF AMD
KBAF 221526Z 2215/2312 30010G18KT P6SM FEW200
     FM230500 31006KT P6SM SKC=



000
FTUS41 KBOX 221526 AAA
TAFBDL
TAF AMD
KBDL 221526Z 2215/2318 30010G18KT P6SM FEW250
     FM230200 30009KT P6SM FEW250
     FM231000 28005KT P6SM SKC=



000
FTUS41 KBOX 221526 AAA
TAFORH
TAF AMD
KORH 221526Z 2215/2312 30010G18KT P6SM FEW200
     FM221800 28014G21KT P6SM SCT060
     FM230200 29009KT P6SM FEW250=



000
FTUS41 KBOX 221526 AAA
TAFPVD
TAF AMD
KPVD 221526Z 2215/2312 31009KT P6SM SKC
     FM222100 29011G22KT P6SM SCT250
     FM230600 31007KT P6SM SKC=



000
FTUS41 KBOX 221526 AAB
TAFACK
TAF AMD
KACK 221526Z 2215/2312 32006KT P6SM SCT250
     FM221800 24012KT P6SM FEW250
     FM222100 25013G25KT P6SM FEW060
     FM230300 29012G27KT P6SM SCT080=



000
FTUS41 KBOX 221526 AAB
TAFBOS
TAF AMD
KBOS 221526Z 2215/2318 32008KT P6SM FEW060 FEW250
     FM221800 28010KT P6SM SCT060
     FM222100 29012G24KT P6SM SCT060=



000
FTUS41 KBOX 221526 AAB
TAFBAF
TAF AMD
KBAF 221526Z 2215/2312 30010G18KT P6SM FEW200
     FM230500 31006KT P6SM SKC=



000
FTUS41 KBOX 221526 AAA
TAFPVD
TAF AMD
KPVD 221526Z 2215/2312 31009KT P6SM SKC
     FM222100 29011G22KT P6SM SCT250
     FM230600 31007KT P6SM SKC=



000
FTUS41 KBOX 221526 AAB
TAFBOS
TAF AMD
KBOS 221526Z 2215/2318 32008KT P6SM FEW060 FEW250
     FM221800 28010KT P6SM SCT060
     FM222100 29012G24KT P6SM SCT060=



000
FTUS41 KBOX 221526 AAA
TAFBDL
TAF AMD
KBDL 221526Z 2215/2318 30010G18KT P6SM FEW250
     FM230200 30009KT P6SM FEW250
     FM231000 28005KT P6SM SKC=



000
FTUS41 KBOX 221526 AAA
TAFORH
TAF AMD
KORH 221526Z 2215/2312 30010G18KT P6SM FEW200
     FM221800 28014G21KT P6SM SCT060
     FM230200 29009KT P6SM FEW250=



000
FTUS41 KBOX 221316 AAA
TAFACK
TAF AMD
KACK 221316Z 2213/2312 04005KT P6SM OVC004
     FM221400 36007KT P6SM SCT010
     FM221500 32009KT P6SM BKN250
     FM221700 25011KT P6SM FEW250
     FM222100 25013G25KT P6SM FEW060
     FM230300 29012G27KT P6SM SCT080=



000
FTUS41 KBOX 221313 AAA
TAFBAF
TAF AMD
KBAF 221313Z 2213/2312 30014G22KT P6SM SKC
     FM221500 29010G18KT P6SM SCT090
     FM230500 31006KT P6SM SKC=



000
FTUS41 KBOX 221313 AAA
TAFBOS
TAF AMD
KBOS 221313Z 2213/2318 31008KT P6SM SCT080
     FM221600 28011G21KT P6SM SCT080
     FM231000 29008KT P6SM SKC=



000
FTUS41 KBOX 221313 AAA
TAFBOS
TAF AMD
KBOS 221313Z 2213/2318 31008KT P6SM SCT080
     FM221600 28011G21KT P6SM SCT080
     FM231000 29008KT P6SM SKC=



000
FTUS41 KBOX 221313 AAA
TAFBAF
TAF AMD
KBAF 221313Z 2213/2312 30014G22KT P6SM SKC
     FM221500 29010G18KT P6SM SCT090
     FM230500 31006KT P6SM SKC=



000
FTUS41 KBOX 221313 AAA
TAFBAF
TAF AMD
KBAF 221313Z 2213/2312 30014G22KT P6SM SKC
     FM221500 29010G18KT P6SM SCT090
     FM230500 31006KT P6SM SKC=



000
FTUS41 KBOX 221313 AAA
TAFBOS
TAF AMD
KBOS 221313Z 2213/2318 31008KT P6SM SCT080
     FM221600 28011G21KT P6SM SCT080
     FM231000 29008KT P6SM SKC=



000
FTUS41 KBOX 221313 AAA
TAFBOS
TAF AMD
KBOS 221313Z 2213/2318 31008KT P6SM SCT080
     FM221600 28011G21KT P6SM SCT080
     FM231000 29008KT P6SM SKC=



000
FTUS41 KBOX 221313 AAA
TAFBAF
TAF AMD
KBAF 221313Z 2213/2312 30014G22KT P6SM SKC
     FM221500 29010G18KT P6SM SCT090
     FM230500 31006KT P6SM SKC=



000
FTUS41 KBOX 221122
TAFPVD
TAF
KPVD 221122Z 2212/2312 VRB03KT P6SM SCT060
     FM221500 31008KT P6SM SCT250
     FM221800 26012KT P6SM SCT060
     FM222200 29011G22KT P6SM SCT250
     FM230600 31007KT P6SM SKC=



000
FTUS41 KBOX 221122
TAFBAF
TAF
KBAF 221122Z 2212/2312 30006KT P6SM SCT080
     FM221500 29010G18KT P6SM SCT090
     FM230500 31006KT P6SM SKC=



000
FTUS41 KBOX 221122
TAFACK
TAF
KACK 221122Z 2212/2312 02007KT 6SM -RA BR SCT004 OVC015
     FM221300 36007KT P6SM VCSH BKN060
     FM221500 32009KT P6SM BKN250
     FM221700 25011KT P6SM FEW250
     FM222100 25013G25KT P6SM FEW060
     FM230300 29012G27KT P6SM SCT080=



000
FTUS41 KBOX 221122
TAFPVD
TAF
KPVD 221122Z 2212/2312 VRB03KT P6SM SCT060
     FM221500 31008KT P6SM SCT250
     FM221800 26012KT P6SM SCT060
     FM222200 29011G22KT P6SM SCT250
     FM230600 31007KT P6SM SKC=



000
FTUS41 KBOX 221122
TAFORH
TAF
KORH 221122Z 2212/2312 29009KT P6SM FEW090
     FM221500 29011G19KT P6SM SCT090
     FM230600 30007KT P6SM FEW250=



000
FTUS41 KBOX 221122
TAFBOS
TAF
KBOS 221122Z 2212/2318 24006KT P6SM BKN070
     FM221500 27008KT P6SM SCT250
     FM221700 28011G21KT P6SM SCT080
     FM231000 29008KT P6SM SKC=



000
FTUS41 KBOX 221122
TAFBDL
TAF
KBDL 221122Z 2212/2318 30005KT P6SM SCT070
     FM221500 29010G18KT P6SM SCT090
     FM230300 31008KT P6SM FEW250=



000
FTUS41 KBOX 221122
TAFORH
TAF
KORH 221122Z 2212/2312 29009KT P6SM FEW090
     FM221500 29011G19KT P6SM SCT090
     FM230600 30007KT P6SM FEW250=



000
FTUS41 KBOX 221122
TAFBOS
TAF
KBOS 221122Z 2212/2318 24006KT P6SM BKN070
     FM221500 27008KT P6SM SCT250
     FM221700 28011G21KT P6SM SCT080
     FM231000 29008KT P6SM SKC=



000
FTUS41 KBOX 221122
TAFBOS
TAF
KBOS 221122Z 2212/2318 24006KT P6SM BKN070
     FM221500 27008KT P6SM SCT250
     FM221700 28011G21KT P6SM SCT080
     FM231000 29008KT P6SM SKC=



000
FTUS41 KBOX 221122
TAFACK
TAF
KACK 221122Z 2212/2312 02007KT 6SM -RA BR SCT004 OVC015
     FM221300 36007KT P6SM VCSH BKN060
     FM221500 32009KT P6SM BKN250
     FM221700 25011KT P6SM FEW250
     FM222100 25013G25KT P6SM FEW060
     FM230300 29012G27KT P6SM SCT080=



000
FTUS41 KBOX 221122
TAFBAF
TAF
KBAF 221122Z 2212/2312 30006KT P6SM SCT080
     FM221500 29010G18KT P6SM SCT090
     FM230500 31006KT P6SM SKC=



000
FTUS41 KBOX 221122
TAFBDL
TAF
KBDL 221122Z 2212/2318 30005KT P6SM SCT070
     FM221500 29010G18KT P6SM SCT090
     FM230300 31008KT P6SM FEW250=



000
FTUS41 KBOX 221122
TAFBOS
TAF
KBOS 221122Z 2212/2318 24006KT P6SM BKN070
     FM221500 27008KT P6SM SCT250
     FM221700 28011G21KT P6SM SCT080
     FM231000 29008KT P6SM SKC=



000
FTUS41 KBOX 221122
TAFORH
TAF
KORH 221122Z 2212/2312 29009KT P6SM FEW090
     FM221500 29011G19KT P6SM SCT090
     FM230600 30007KT P6SM FEW250=



000
FTUS41 KBOX 221122
TAFACK
TAF
KACK 221122Z 2212/2312 02007KT 6SM -RA BR SCT004 OVC015
     FM221300 36007KT P6SM VCSH BKN060
     FM221500 32009KT P6SM BKN250
     FM221700 25011KT P6SM FEW250
     FM222100 25013G25KT P6SM FEW060
     FM230300 29012G27KT P6SM SCT080=



000
FTUS41 KBOX 221122
TAFBDL
TAF
KBDL 221122Z 2212/2318 30005KT P6SM SCT070
     FM221500 29010G18KT P6SM SCT090
     FM230300 31008KT P6SM FEW250=



000
FTUS41 KBOX 221122
TAFBAF
TAF
KBAF 221122Z 2212/2312 30006KT P6SM SCT080
     FM221500 29010G18KT P6SM SCT090
     FM230500 31006KT P6SM SKC=



000
FTUS41 KBOX 221122
TAFPVD
TAF
KPVD 221122Z 2212/2312 VRB03KT P6SM SCT060
     FM221500 31008KT P6SM SCT250
     FM221800 26012KT P6SM SCT060
     FM222200 29011G22KT P6SM SCT250
     FM230600 31007KT P6SM SKC=



000
FTUS41 KBOX 221122
TAFBDL
TAF
KBDL 221122Z 2212/2318 30005KT P6SM SCT070
     FM221500 29010G18KT P6SM SCT090
     FM230300 31008KT P6SM FEW250=



000
FTUS41 KBOX 221122
TAFACK
TAF
KACK 221122Z 2212/2312 02007KT 6SM -RA BR SCT004 OVC015
     FM221300 36007KT P6SM VCSH BKN060
     FM221500 32009KT P6SM BKN250
     FM221700 25011KT P6SM FEW250
     FM222100 25013G25KT P6SM FEW060
     FM230300 29012G27KT P6SM SCT080=



000
FTUS41 KBOX 221122
TAFBAF
TAF
KBAF 221122Z 2212/2312 30006KT P6SM SCT080
     FM221500 29010G18KT P6SM SCT090
     FM230500 31006KT P6SM SKC=



000
FTUS41 KBOX 221122
TAFPVD
TAF
KPVD 221122Z 2212/2312 VRB03KT P6SM SCT060
     FM221500 31008KT P6SM SCT250
     FM221800 26012KT P6SM SCT060
     FM222200 29011G22KT P6SM SCT250
     FM230600 31007KT P6SM SKC=



000
FTUS41 KBOX 221122
TAFORH
TAF
KORH 221122Z 2212/2312 29009KT P6SM FEW090
     FM221500 29011G19KT P6SM SCT090
     FM230600 30007KT P6SM FEW250=



000
FTUS41 KBOX 220831 AAA
TAFACK
TAF AMD
KACK 220831Z 2209/2306 10007KT P6SM RA SCT007 BKN012 OVC015
     FM221100 03008KT 3SM -RA OVC008
     FM221300 36010KT P6SM VCSH BKN060
     FM221600 28012KT P6SM SCT250
     FM222100 25013G25KT P6SM FEW250
     FM230200 28013G24KT P6SM BKN080=



000
FTUS41 KBOX 220831 AAA
TAFACK
TAF AMD
KACK 220831Z 2209/2306 10007KT P6SM RA SCT007 BKN012 OVC015
     FM221100 03008KT 3SM -RA OVC008
     FM221300 36010KT P6SM VCSH BKN060
     FM221600 28012KT P6SM SCT250
     FM222100 25013G25KT P6SM FEW250
     FM230200 28013G24KT P6SM BKN080=



000
FTUS41 KBOX 220829 AAA
TAFPVD
TAF AMD
KPVD 220829Z 2208/2306 20004KT P6SM -RA OVC060
     FM221100 29004KT P6SM BKN050
     FM221400 29006KT P6SM SCT250
     FM221800 26012KT P6SM BKN070
     FM222200 29011G22KT P6SM SCT250=



000
FTUS41 KBOX 220829 AAA
TAFPVD
TAF AMD
KPVD 220829Z 2208/2306 20004KT P6SM -RA OVC060
     FM221100 29004KT P6SM BKN050
     FM221400 29006KT P6SM SCT250
     FM221800 26012KT P6SM BKN070
     FM222200 29011G22KT P6SM SCT250=



000
FTUS41 KBOX 220828 AAA
TAFBDL
TAF AMD
KBDL 220828Z 2208/2312 22004KT P6SM OVC070
     FM221100 27004KT P6SM SCT090
     FM221500 28008KT P6SM SCT250
     FM221800 28012G19KT P6SM BKN070
     FM230300 31008KT P6SM SKC=



000
FTUS41 KBOX 220828 AAA
TAFBDL
TAF AMD
KBDL 220828Z 2208/2312 22004KT P6SM OVC070
     FM221100 27004KT P6SM SCT090
     FM221500 28008KT P6SM SCT250
     FM221800 28012G19KT P6SM BKN070
     FM230300 31008KT P6SM SKC=



000
FTUS41 KBOX 220828 AAA
TAFBDL
TAF AMD
KBDL 220828Z 2208/2312 22004KT P6SM OVC070
     FM221100 27004KT P6SM SCT090
     FM221500 28008KT P6SM SCT250
     FM221800 28012G19KT P6SM BKN070
     FM230300 31008KT P6SM SKC=



000
FTUS41 KBOX 220828 AAA
TAFBDL
TAF AMD
KBDL 220828Z 2208/2312 22004KT P6SM OVC070
     FM221100 27004KT P6SM SCT090
     FM221500 28008KT P6SM SCT250
     FM221800 28012G19KT P6SM BKN070
     FM230300 31008KT P6SM SKC=



000
FTUS41 KBOX 220826 AAA
TAFBOS
TAF AMD
KBOS 220826Z 2208/2312 20007KT P6SM OVC070
     FM221300 24006KT P6SM BKN080
     FM221500 26008KT P6SM SCT250
     FM221900 29011G18KT P6SM SCT060=



000
FTUS41 KBOX 220826 AAA
TAFBOS
TAF AMD
KBOS 220826Z 2208/2312 20007KT P6SM OVC070
     FM221300 24006KT P6SM BKN080
     FM221500 26008KT P6SM SCT250
     FM221900 29011G18KT P6SM SCT060=



000
FTUS41 KBOX 220530
TAFBOS
TAF
KBOS 220530Z 2206/2312 22009KT P6SM OVC090
     FM221300 24006KT P6SM BKN080
     FM221500 26008KT P6SM SCT250
     FM221900 29011G18KT P6SM SCT060=



000
FTUS41 KBOX 220530
TAFPVD
TAF
KPVD 220530Z 2206/2306 20007KT P6SM VCSH OVC070
     FM221100 29004KT P6SM BKN050
     FM221400 29006KT P6SM SCT250
     FM221800 26012KT P6SM BKN070
     FM222200 29011G22KT P6SM SCT250=



000
FTUS41 KBOX 220530
TAFBAF
TAF
KBAF 220530Z 2206/2306 18005KT P6SM OVC080
     FM221100 29004KT P6SM FEW150
     FM221500 30008KT P6SM FEW250
     FM221800 30012G20KT P6SM SCT250
     FM230300 31008KT P6SM FEW250=



000
FTUS41 KBOX 220530
TAFORH
TAF
KORH 220530Z 2206/2306 23007KT P6SM OVC070
     FM221200 28006KT P6SM FEW200
     FM221600 27010G18KT P6SM SCT050
     FM222100 28011G26KT P6SM SCT050
     FM230500 30008KT P6SM FEW250=



000
FTUS41 KBOX 220530
TAFBDL
TAF
KBDL 220530Z 2206/2312 18007KT P6SM FEW060 OVC080
     FM221100 27004KT P6SM SCT090
     FM221500 28008KT P6SM SCT250
     FM221800 28012G19KT P6SM BKN070
     FM230300 31008KT P6SM SKC=



000
FTUS41 KBOX 220530
TAFBAF
TAF
KBAF 220530Z 2206/2306 18005KT P6SM OVC080
     FM221100 29004KT P6SM FEW150
     FM221500 30008KT P6SM FEW250
     FM221800 30012G20KT P6SM SCT250
     FM230300 31008KT P6SM FEW250=



000
FTUS41 KBOX 220530
TAFACK
TAF
KACK 220530Z 2206/2306 14005KT P6SM -RA SCT009 BKN025 OVC060
     FM220900 09007KT 5SM -RA OVC008
     FM221100 03008KT 3SM -RA OVC008
     FM221300 36010KT P6SM VCSH BKN060
     FM221500 31011KT P6SM VCSH BKN250
     FM221600 28012KT P6SM SCT250
     FM222100 25013G25KT P6SM FEW250
     FM230200 28013G24KT P6SM BKN080
     FM230400 30012G25KT P6SM SCT080=



000
FTUS41 KBOX 220530
TAFORH
TAF
KORH 220530Z 2206/2306 23007KT P6SM OVC070
     FM221200 28006KT P6SM FEW200
     FM221600 27010G18KT P6SM SCT050
     FM222100 28011G26KT P6SM SCT050
     FM230500 30008KT P6SM FEW250=



000
FTUS41 KBOX 220530
TAFBDL
TAF
KBDL 220530Z 2206/2312 18007KT P6SM FEW060 OVC080
     FM221100 27004KT P6SM SCT090
     FM221500 28008KT P6SM SCT250
     FM221800 28012G19KT P6SM BKN070
     FM230300 31008KT P6SM SKC=



000
FTUS41 KBOX 220530
TAFPVD
TAF
KPVD 220530Z 2206/2306 20007KT P6SM VCSH OVC070
     FM221100 29004KT P6SM BKN050
     FM221400 29006KT P6SM SCT250
     FM221800 26012KT P6SM BKN070
     FM222200 29011G22KT P6SM SCT250=



000
FTUS41 KBOX 220530
TAFACK
TAF
KACK 220530Z 2206/2306 14005KT P6SM -RA SCT009 BKN025 OVC060
     FM220900 09007KT 5SM -RA OVC008
     FM221100 03008KT 3SM -RA OVC008
     FM221300 36010KT P6SM VCSH BKN060
     FM221500 31011KT P6SM VCSH BKN250
     FM221600 28012KT P6SM SCT250
     FM222100 25013G25KT P6SM FEW250
     FM230200 28013G24KT P6SM BKN080
     FM230400 30012G25KT P6SM SCT080=



000
FTUS41 KBOX 220530
TAFBOS
TAF
KBOS 220530Z 2206/2312 22009KT P6SM OVC090
     FM221300 24006KT P6SM BKN080
     FM221500 26008KT P6SM SCT250
     FM221900 29011G18KT P6SM SCT060=



000
FTUS41 KBOX 220530
TAFORH
TAF
KORH 220530Z 2206/2306 23007KT P6SM OVC070
     FM221200 28006KT P6SM FEW200
     FM221600 27010G18KT P6SM SCT050
     FM222100 28011G26KT P6SM SCT050
     FM230500 30008KT P6SM FEW250=



000
FTUS41 KBOX 220530
TAFORH
TAF
KORH 220530Z 2206/2306 23007KT P6SM OVC070
     FM221200 28006KT P6SM FEW200
     FM221600 27010G18KT P6SM SCT050
     FM222100 28011G26KT P6SM SCT050
     FM230500 30008KT P6SM FEW250=



000
FTUS41 KBOX 220530
TAFBDL
TAF
KBDL 220530Z 2206/2312 18007KT P6SM FEW060 OVC080
     FM221100 27004KT P6SM SCT090
     FM221500 28008KT P6SM SCT250
     FM221800 28012G19KT P6SM BKN070
     FM230300 31008KT P6SM SKC=



000
FTUS41 KBOX 220530
TAFACK
TAF
KACK 220530Z 2206/2306 14005KT P6SM -RA SCT009 BKN025 OVC060
     FM220900 09007KT 5SM -RA OVC008
     FM221100 03008KT 3SM -RA OVC008
     FM221300 36010KT P6SM VCSH BKN060
     FM221500 31011KT P6SM VCSH BKN250
     FM221600 28012KT P6SM SCT250
     FM222100 25013G25KT P6SM FEW250
     FM230200 28013G24KT P6SM BKN080
     FM230400 30012G25KT P6SM SCT080=



000
FTUS41 KBOX 220530
TAFBAF
TAF
KBAF 220530Z 2206/2306 18005KT P6SM OVC080
     FM221100 29004KT P6SM FEW150
     FM221500 30008KT P6SM FEW250
     FM221800 30012G20KT P6SM SCT250
     FM230300 31008KT P6SM FEW250=



000
FTUS41 KBOX 220530
TAFBDL
TAF
KBDL 220530Z 2206/2312 18007KT P6SM FEW060 OVC080
     FM221100 27004KT P6SM SCT090
     FM221500 28008KT P6SM SCT250
     FM221800 28012G19KT P6SM BKN070
     FM230300 31008KT P6SM SKC=



000
FTUS41 KBOX 220530
TAFBAF
TAF
KBAF 220530Z 2206/2306 18005KT P6SM OVC080
     FM221100 29004KT P6SM FEW150
     FM221500 30008KT P6SM FEW250
     FM221800 30012G20KT P6SM SCT250
     FM230300 31008KT P6SM FEW250=



000
FTUS41 KBOX 220530
TAFBOS
TAF
KBOS 220530Z 2206/2312 22009KT P6SM OVC090
     FM221300 24006KT P6SM BKN080
     FM221500 26008KT P6SM SCT250
     FM221900 29011G18KT P6SM SCT060=



000
FTUS41 KBOX 220530
TAFPVD
TAF
KPVD 220530Z 2206/2306 20007KT P6SM VCSH OVC070
     FM221100 29004KT P6SM BKN050
     FM221400 29006KT P6SM SCT250
     FM221800 26012KT P6SM BKN070
     FM222200 29011G22KT P6SM SCT250=



000
FTUS41 KBOX 220530
TAFPVD
TAF
KPVD 220530Z 2206/2306 20007KT P6SM VCSH OVC070
     FM221100 29004KT P6SM BKN050
     FM221400 29006KT P6SM SCT250
     FM221800 26012KT P6SM BKN070
     FM222200 29011G22KT P6SM SCT250=



000
FTUS41 KBOX 220530
TAFACK
TAF
KACK 220530Z 2206/2306 14005KT P6SM -RA SCT009 BKN025 OVC060
     FM220900 09007KT 5SM -RA OVC008
     FM221100 03008KT 3SM -RA OVC008
     FM221300 36010KT P6SM VCSH BKN060
     FM221500 31011KT P6SM VCSH BKN250
     FM221600 28012KT P6SM SCT250
     FM222100 25013G25KT P6SM FEW250
     FM230200 28013G24KT P6SM BKN080
     FM230400 30012G25KT P6SM SCT080=



000
FTUS41 KBOX 220530
TAFBOS
TAF
KBOS 220530Z 2206/2312 22009KT P6SM OVC090
     FM221300 24006KT P6SM BKN080
     FM221500 26008KT P6SM SCT250
     FM221900 29011G18KT P6SM SCT060=



000
FTUS41 KBOX 212323
TAFPVD
TAF
KPVD 212323Z 2200/2224 20010KT P6SM BKN080
     FM220400 20006KT P6SM -RA OVC060
     FM221300 32005KT P6SM SCT070
     FM221600 29009KT P6SM SCT070 SCT250
     FM222200 29011KT P6SM SCT250=



000
FTUS41 KBOX 212323
TAFBDL
TAF
KBDL 212323Z 2200/2306 20008KT P6SM BKN100
     FM220400 19004KT P6SM BKN060
     FM221000 VRB03KT P6SM SCT080
     FM221500 29008KT P6SM SCT250
     FM221900 30012KT P6SM SCT070=



000
FTUS41 KBOX 212323
TAFACK
TAF
KACK 212323Z 2200/2224 20008KT P6SM OVC080
     FM220130 20009KT P6SM -RA OVC070
     FM220600 23006KT 3SM RA BR OVC015
     FM220800 34004KT 3SM RA BR OVC010
     FM221200 02010KT 2SM -RA OVC025
     FM221400 33009KT P6SM VCSH BKN100
     FM221700 27011KT P6SM SCT250=



000
FTUS41 KBOX 212323
TAFBDL
TAF
KBDL 212323Z 2200/2306 20008KT P6SM BKN100
     FM220400 19004KT P6SM BKN060
     FM221000 VRB03KT P6SM SCT080
     FM221500 29008KT P6SM SCT250
     FM221900 30012KT P6SM SCT070=



000
FTUS41 KBOX 212323
TAFBOS
TAF
KBOS 212323Z 2200/2306 20009KT P6SM BKN080
     FM220700 21009KT P6SM VCSH BKN070
     FM221400 26006KT P6SM SCT250
     FM222100 28010KT P6SM BKN250=



000
FTUS41 KBOX 212323
TAFBAF
TAF
KBAF 212323Z 2200/2224 25007KT P6SM SCT090
     FM220200 21005KT P6SM BKN070
     FM220600 VRB03KT P6SM OVC050
     FM221500 30008KT P6SM SCT250
     FM221900 30013KT P6SM SCT250=



000
FTUS41 KBOX 212323
TAFORH
TAF
KORH 212323Z 2200/2224 23008KT P6SM BKN080
     FM221000 25006KT P6SM VCSH BKN060
     FM221600 28011KT P6SM SCT070
     FM221900 28012KT P6SM SCT250=



000
FTUS41 KBOX 212323
TAFORH
TAF
KORH 212323Z 2200/2224 23008KT P6SM BKN080
     FM221000 25006KT P6SM VCSH BKN060
     FM221600 28011KT P6SM SCT070
     FM221900 28012KT P6SM SCT250=



000
FTUS41 KBOX 212323
TAFBAF
TAF
KBAF 212323Z 2200/2224 25007KT P6SM SCT090
     FM220200 21005KT P6SM BKN070
     FM220600 VRB03KT P6SM OVC050
     FM221500 30008KT P6SM SCT250
     FM221900 30013KT P6SM SCT250=



000
FTUS41 KBOX 212323
TAFACK
TAF
KACK 212323Z 2200/2224 20008KT P6SM OVC080
     FM220130 20009KT P6SM -RA OVC070
     FM220600 23006KT 3SM RA BR OVC015
     FM220800 34004KT 3SM RA BR OVC010
     FM221200 02010KT 2SM -RA OVC025
     FM221400 33009KT P6SM VCSH BKN100
     FM221700 27011KT P6SM SCT250=



000
FTUS41 KBOX 212323
TAFBOS
TAF
KBOS 212323Z 2200/2306 20009KT P6SM BKN080
     FM220700 21009KT P6SM VCSH BKN070
     FM221400 26006KT P6SM SCT250
     FM222100 28010KT P6SM BKN250=



000
FTUS41 KBOX 212323
TAFPVD
TAF
KPVD 212323Z 2200/2224 20010KT P6SM BKN080
     FM220400 20006KT P6SM -RA OVC060
     FM221300 32005KT P6SM SCT070
     FM221600 29009KT P6SM SCT070 SCT250
     FM222200 29011KT P6SM SCT250=



000
FTUS41 KBOX 212323
TAFBOS
TAF
KBOS 212323Z 2200/2306 20009KT P6SM BKN080
     FM220700 21009KT P6SM VCSH BKN070
     FM221400 26006KT P6SM SCT250
     FM222100 28010KT P6SM BKN250=



000
FTUS41 KBOX 212323
TAFPVD
TAF
KPVD 212323Z 2200/2224 20010KT P6SM BKN080
     FM220400 20006KT P6SM -RA OVC060
     FM221300 32005KT P6SM SCT070
     FM221600 29009KT P6SM SCT070 SCT250
     FM222200 29011KT P6SM SCT250=



000
FTUS41 KBOX 212323
TAFBAF
TAF
KBAF 212323Z 2200/2224 25007KT P6SM SCT090
     FM220200 21005KT P6SM BKN070
     FM220600 VRB03KT P6SM OVC050
     FM221500 30008KT P6SM SCT250
     FM221900 30013KT P6SM SCT250=



000
FTUS41 KBOX 212323
TAFACK
TAF
KACK 212323Z 2200/2224 20008KT P6SM OVC080
     FM220130 20009KT P6SM -RA OVC070
     FM220600 23006KT 3SM RA BR OVC015
     FM220800 34004KT 3SM RA BR OVC010
     FM221200 02010KT 2SM -RA OVC025
     FM221400 33009KT P6SM VCSH BKN100
     FM221700 27011KT P6SM SCT250=



000
FTUS41 KBOX 212323
TAFBOS
TAF
KBOS 212323Z 2200/2306 20009KT P6SM BKN080
     FM220700 21009KT P6SM VCSH BKN070
     FM221400 26006KT P6SM SCT250
     FM222100 28010KT P6SM BKN250=



000
FTUS41 KBOX 212323
TAFACK
TAF
KACK 212323Z 2200/2224 20008KT P6SM OVC080
     FM220130 20009KT P6SM -RA OVC070
     FM220600 23006KT 3SM RA BR OVC015
     FM220800 34004KT 3SM RA BR OVC010
     FM221200 02010KT 2SM -RA OVC025
     FM221400 33009KT P6SM VCSH BKN100
     FM221700 27011KT P6SM SCT250=



000
FTUS41 KBOX 212323
TAFORH
TAF
KORH 212323Z 2200/2224 23008KT P6SM BKN080
     FM221000 25006KT P6SM VCSH BKN060
     FM221600 28011KT P6SM SCT070
     FM221900 28012KT P6SM SCT250=



000
FTUS41 KBOX 212323
TAFPVD
TAF
KPVD 212323Z 2200/2224 20010KT P6SM BKN080
     FM220400 20006KT P6SM -RA OVC060
     FM221300 32005KT P6SM SCT070
     FM221600 29009KT P6SM SCT070 SCT250
     FM222200 29011KT P6SM SCT250=



000
FTUS41 KBOX 212323
TAFBAF
TAF
KBAF 212323Z 2200/2224 25007KT P6SM SCT090
     FM220200 21005KT P6SM BKN070
     FM220600 VRB03KT P6SM OVC050
     FM221500 30008KT P6SM SCT250
     FM221900 30013KT P6SM SCT250=



000
FTUS41 KBOX 212323
TAFBDL
TAF
KBDL 212323Z 2200/2306 20008KT P6SM BKN100
     FM220400 19004KT P6SM BKN060
     FM221000 VRB03KT P6SM SCT080
     FM221500 29008KT P6SM SCT250
     FM221900 30012KT P6SM SCT070=



000
FTUS41 KBOX 212323
TAFBDL
TAF
KBDL 212323Z 2200/2306 20008KT P6SM BKN100
     FM220400 19004KT P6SM BKN060
     FM221000 VRB03KT P6SM SCT080
     FM221500 29008KT P6SM SCT250
     FM221900 30012KT P6SM SCT070=



000
FTUS41 KBOX 212323
TAFORH
TAF
KORH 212323Z 2200/2224 23008KT P6SM BKN080
     FM221000 25006KT P6SM VCSH BKN060
     FM221600 28011KT P6SM SCT070
     FM221900 28012KT P6SM SCT250=



000
FTUS41 KBOX 212017 AAB
TAFACK
TAF AMD
KACK 212017Z 2120/2218 20012KT P6SM OVC100
     FM220300 20006KT 6SM -RA OVC080
     FM220600 00000KT 2SM RA BR OVC030
     FM220900 07006KT 2SM RA BR OVC008
     FM221200 02010KT 5SM -RA OVC008
     FM221500 31010KT P6SM VCSH SCT090=



000
FTUS41 KBOX 212017 AAB
TAFACK
TAF AMD
KACK 212017Z 2120/2218 20012KT P6SM OVC100
     FM220300 20006KT 6SM -RA OVC080
     FM220600 00000KT 2SM RA BR OVC030
     FM220900 07006KT 2SM RA BR OVC008
     FM221200 02010KT 5SM -RA OVC008
     FM221500 31010KT P6SM VCSH SCT090=



000
FTUS41 KBOX 212014 AAB
TAFPVD
TAF AMD
KPVD 212014Z 2120/2218 19016G24KT P6SM SCT090 BKN300
     FM212300 21012KT P6SM OVC100
     FM220600 VRB03KT P6SM VCSH OVC080
     FM220900 VRB03KT P6SM VCSH BKN050
     FM221300 31006KT P6SM SCT130
     FM221600 29009KT P6SM SCT200=



000
FTUS41 KBOX 212014 AAB
TAFPVD
TAF AMD
KPVD 212014Z 2120/2218 19016G24KT P6SM SCT090 BKN300
     FM212300 21012KT P6SM OVC100
     FM220600 VRB03KT P6SM VCSH OVC080
     FM220900 VRB03KT P6SM VCSH BKN050
     FM221300 31006KT P6SM SCT130
     FM221600 29009KT P6SM SCT200=



000
FTUS41 KBOX 212007 AAB
TAFORH
TAF AMD
KORH 212007Z 2120/2218 25009KT P6SM OVC090
     FM220800 26005KT P6SM VCSH BKN080
     FM221100 28006KT P6SM SCT080
     FM221600 29009KT P6SM VCSH SCT200=



000
FTUS41 KBOX 212007 AAB
TAFORH
TAF AMD
KORH 212007Z 2120/2218 25009KT P6SM OVC090
     FM220800 26005KT P6SM VCSH BKN080
     FM221100 28006KT P6SM SCT080
     FM221600 29009KT P6SM VCSH SCT200=



000
FTUS41 KBOX 212006 AAB
TAFBAF
TAF AMD
KBAF 212006Z 2120/2218 23008KT P6SM OVC090
     FM220600 00000KT P6SM OVC090
     FM221100 VRB03KT P6SM SCT120
     FM221500 30008KT P6SM SCT250=



000
FTUS41 KBOX 212006 AAB
TAFBAF
TAF AMD
KBAF 212006Z 2120/2218 23008KT P6SM OVC090
     FM220600 00000KT P6SM OVC090
     FM221100 VRB03KT P6SM SCT120
     FM221500 30008KT P6SM SCT250=



000
FTUS41 KBOX 212005 AAB
TAFBDL
TAF AMD
KBDL 212005Z 2120/2224 21009KT P6SM FEW070 BKN100
     FM220700 VRB03KT P6SM BKN090
     FM221400 28006KT P6SM FEW250
     FM221800 29011KT P6SM BKN060
     FM222000 30012KT P6SM SCT070=



000
FTUS41 KBOX 212005 AAB
TAFBDL
TAF AMD
KBDL 212005Z 2120/2224 21009KT P6SM FEW070 BKN100
     FM220700 VRB03KT P6SM BKN090
     FM221400 28006KT P6SM FEW250
     FM221800 29011KT P6SM BKN060
     FM222000 30012KT P6SM SCT070=



000
FTUS41 KBOX 212004 AAB
TAFBOS
TAF AMD
KBOS 212004Z 2120/2224 19012KT P6SM BKN100
     FM220600 22007KT P6SM VCSH BKN110
     FM221300 25005KT P6SM SCT130
     FM222100 29011KT P6SM SCT250=



000
FTUS41 KBOX 212004 AAB
TAFBOS
TAF AMD
KBOS 212004Z 2120/2224 19012KT P6SM BKN100
     FM220600 22007KT P6SM VCSH BKN110
     FM221300 25005KT P6SM SCT130
     FM222100 29011KT P6SM SCT250=



000
FTUS41 KBOX 211745 RRA
TAFBAF
TAF
KBAF 211745Z 2118/2218 20006KT P6SM BKN150
     FM220600 00000KT P6SM OVC090
     FM221100 VRB03KT P6SM SCT120
     FM221500 30008KT P6SM SCT250=



000
FTUS41 KBOX 211745 RRA
TAFBDL
TAF
KBDL 211745Z 2118/2224 21008KT P6SM BKN150
     FM220700 VRB03KT P6SM BKN090
     FM221400 28006KT P6SM FEW250
     FM221800 29011KT P6SM BKN060
     FM222000 30012KT P6SM SCT070=



000
FTUS41 KBOX 211745 RRA
TAFORH
TAF
KORH 211745Z 2118/2218 21009KT P6SM OVC150
     FM220800 26005KT P6SM VCSH BKN080
     FM221100 28006KT P6SM SCT080
     FM221600 29009KT P6SM VCSH SCT200=



000
FTUS41 KBOX 211745 RRA
TAFORH
TAF
KORH 211745Z 2118/2218 21009KT P6SM OVC150
     FM220800 26005KT P6SM VCSH BKN080
     FM221100 28006KT P6SM SCT080
     FM221600 29009KT P6SM VCSH SCT200=



000
FTUS41 KBOX 211745 RRA
TAFACK
TAF
KACK 211745Z 2118/2218 21008KT P6SM OVC150
     FM220300 20006KT 6SM -RA OVC080
     FM220600 00000KT 2SM RA BR OVC030
     FM220900 07006KT 2SM RA BR OVC008
     FM221200 02010KT 5SM -RA OVC008
     FM221500 31010KT P6SM VCSH SCT090=



000
FTUS41 KBOX 211745 RRA
TAFBDL
TAF
KBDL 211745Z 2118/2224 21008KT P6SM BKN150
     FM220700 VRB03KT P6SM BKN090
     FM221400 28006KT P6SM FEW250
     FM221800 29011KT P6SM BKN060
     FM222000 30012KT P6SM SCT070=



000
FTUS41 KBOX 211745 RRA
TAFPVD
TAF
KPVD 211745Z 2118/2218 20010KT P6SM BKN110
     FM220600 VRB03KT P6SM VCSH OVC080
     FM220900 VRB03KT P6SM VCSH BKN050
     FM221300 31006KT P6SM SCT130
     FM221600 29009KT P6SM SCT200=



000
FTUS41 KBOX 211745 RRA
TAFBAF
TAF
KBAF 211745Z 2118/2218 20006KT P6SM BKN150
     FM220600 00000KT P6SM OVC090
     FM221100 VRB03KT P6SM SCT120
     FM221500 30008KT P6SM SCT250=



000
FTUS41 KBOX 211745 RRA
TAFPVD
TAF
KPVD 211745Z 2118/2218 20010KT P6SM BKN110
     FM220600 VRB03KT P6SM VCSH OVC080
     FM220900 VRB03KT P6SM VCSH BKN050
     FM221300 31006KT P6SM SCT130
     FM221600 29009KT P6SM SCT200=



000
FTUS41 KBOX 211745 RRA
TAFBOS
TAF
KBOS 211745Z 2118/2224 15008KT P6SM BKN150
     FM212100 19009KT P6SM BKN150
     FM220600 22007KT P6SM VCSH BKN110
     FM221300 25005KT P6SM SCT130
     FM222100 29011KT P6SM SCT250=



000
FTUS41 KBOX 211745 RRA
TAFBOS
TAF
KBOS 211745Z 2118/2224 15008KT P6SM BKN150
     FM212100 19009KT P6SM BKN150
     FM220600 22007KT P6SM VCSH BKN110
     FM221300 25005KT P6SM SCT130
     FM222100 29011KT P6SM SCT250=



000
FTUS41 KBOX 211745 RRA
TAFACK
TAF
KACK 211745Z 2118/2218 21008KT P6SM OVC150
     FM220300 20006KT 6SM -RA OVC080
     FM220600 00000KT 2SM RA BR OVC030
     FM220900 07006KT 2SM RA BR OVC008
     FM221200 02010KT 5SM -RA OVC008
     FM221500 31010KT P6SM VCSH SCT090=



000
FTUS41 KBOX 211454 AAA
TAFBOS
TAF AMD
KBOS 211454Z 2115/2218 15005KT P6SM BKN140
     FM212000 20011G18KT P6SM BKN090
     FM220500 21008KT P6SM VCSH BKN080
     FM220800 21006KT P6SM BKN080
     FM221500 00000KT P6SM VCSH BKN080=



000
FTUS41 KBOX 211454 AAA
TAFACK
TAF AMD
KACK 211454Z 2115/2212 00000KT P6SM SKC
     FM211600 21009KT P6SM BKN100
     FM220300 22007KT P6SM -RA OVC035
     FM220600 VRB03KT 3SM RA OVC025=



000
FTUS41 KBOX 211454 AAA
TAFBDL
TAF AMD
KBDL 211454Z 2115/2218 00000KT P6SM BKN150 BKN200
     FM211600 22006KT P6SM SCT100
     FM212100 20011KT P6SM SCT090
     FM220000 19008KT P6SM BKN060
     FM221200 00000KT P6SM SCT060
     FM221400 30006KT P6SM SCT250=



000
FTUS41 KBOX 211454 AAA
TAFBAF
TAF AMD
KBAF 211454Z 2115/2212 00000KT P6SM SKC
     FM211600 24006KT P6SM SCT110
     FM212300 20009KT P6SM SCT090
     FM220000 19008KT P6SM BKN080=



000
FTUS41 KBOX 211454 AAA
TAFPVD
TAF AMD
KPVD 211454Z 2115/2212 VRB03KT P6SM FEW070 SCT150 SCT250
     FM211600 19009KT P6SM SCT120
     FM212300 21010KT P6SM BKN080
     FM220200 21008KT P6SM VCSH BKN070=



000
FTUS41 KBOX 211454 AAA
TAFACK
TAF AMD
KACK 211454Z 2115/2212 00000KT P6SM SKC
     FM211600 21009KT P6SM BKN100
     FM220300 22007KT P6SM -RA OVC035
     FM220600 VRB03KT 3SM RA OVC025=



000
FTUS41 KBOX 211454 AAA
TAFBAF
TAF AMD
KBAF 211454Z 2115/2212 00000KT P6SM SKC
     FM211600 24006KT P6SM SCT110
     FM212300 20009KT P6SM SCT090
     FM220000 19008KT P6SM BKN080=



000
FTUS41 KBOX 211454 AAA
TAFORH
TAF AMD
KORH 211454Z 2115/2212 VRB03KT P6SM FEW120
     FM220000 21009KT P6SM BKN090
     FM220800 25005KT P6SM BKN070=



000
FTUS41 KBOX 211454 AAA
TAFBDL
TAF AMD
KBDL 211454Z 2115/2218 00000KT P6SM BKN150 BKN200
     FM211600 22006KT P6SM SCT100
     FM212100 20011KT P6SM SCT090
     FM220000 19008KT P6SM BKN060
     FM221200 00000KT P6SM SCT060
     FM221400 30006KT P6SM SCT250=



000
FTUS41 KBOX 211454 AAA
TAFBOS
TAF AMD
KBOS 211454Z 2115/2218 15005KT P6SM BKN140
     FM212000 20011G18KT P6SM BKN090
     FM220500 21008KT P6SM VCSH BKN080
     FM220800 21006KT P6SM BKN080
     FM221500 00000KT P6SM VCSH BKN080=



000
FTUS41 KBOX 211454 AAA
TAFORH
TAF AMD
KORH 211454Z 2115/2212 VRB03KT P6SM FEW120
     FM220000 21009KT P6SM BKN090
     FM220800 25005KT P6SM BKN070=



000
FTUS41 KBOX 211454 AAA
TAFPVD
TAF AMD
KPVD 211454Z 2115/2212 VRB03KT P6SM FEW070 SCT150 SCT250
     FM211600 19009KT P6SM SCT120
     FM212300 21010KT P6SM BKN080
     FM220200 21008KT P6SM VCSH BKN070=



000
FTUS41 KBOX 211120
TAFACK
TAF
KACK 211120Z 2112/2212 30006KT P6SM BKN140
     FM211400 26006KT P6SM BKN140
     FM211600 21009KT P6SM BKN100
     FM220300 22007KT P6SM -RA OVC035
     FM220600 VRB03KT 3SM RA OVC025=



000
FTUS41 KBOX 211120
TAFORH
TAF
KORH 211120Z 2112/2212 28005KT P6SM FEW140
     FM211500 22006KT P6SM SCT110
     FM220000 21009KT P6SM BKN090
     FM220800 25005KT P6SM BKN070=



000
FTUS41 KBOX 211120
TAFACK
TAF
KACK 211120Z 2112/2212 30006KT P6SM BKN140
     FM211400 26006KT P6SM BKN140
     FM211600 21009KT P6SM BKN100
     FM220300 22007KT P6SM -RA OVC035
     FM220600 VRB03KT 3SM RA OVC025=



000
FTUS41 KBOX 211120
TAFBOS
TAF
KBOS 211120Z 2112/2218 28005KT P6SM FEW150
     FM211500 17006KT P6SM SCT130
     FM212000 20011G18KT P6SM BKN090
     FM220500 21008KT P6SM VCSH BKN080
     FM220800 21006KT P6SM BKN080
     FM221500 00000KT P6SM VCSH BKN080=



000
FTUS41 KBOX 211120
TAFBDL
TAF
KBDL 211120Z 2112/2218 00000KT P6SM SCT130
     FM211600 22006KT P6SM SCT100
     FM212100 20011KT P6SM SCT090
     FM220000 19008KT P6SM BKN060
     FM221200 00000KT P6SM SCT060
     FM221400 30006KT P6SM SCT250=



000
FTUS41 KBOX 211120
TAFORH
TAF
KORH 211120Z 2112/2212 28005KT P6SM FEW140
     FM211500 22006KT P6SM SCT110
     FM220000 21009KT P6SM BKN090
     FM220800 25005KT P6SM BKN070=



000
FTUS41 KBOX 211120
TAFBOS
TAF
KBOS 211120Z 2112/2218 28005KT P6SM FEW150
     FM211500 17006KT P6SM SCT130
     FM212000 20011G18KT P6SM BKN090
     FM220500 21008KT P6SM VCSH BKN080
     FM220800 21006KT P6SM BKN080
     FM221500 00000KT P6SM VCSH BKN080=



000
FTUS41 KBOX 211120
TAFBAF
TAF
KBAF 211120Z 2112/2212 00000KT P6SM SCT130
     FM211600 24006KT P6SM SCT110
     FM212300 20009KT P6SM SCT090
     FM220000 19008KT P6SM BKN080=



000
FTUS41 KBOX 211120
TAFBAF
TAF
KBAF 211120Z 2112/2212 00000KT P6SM SCT130
     FM211600 24006KT P6SM SCT110
     FM212300 20009KT P6SM SCT090
     FM220000 19008KT P6SM BKN080=



000
FTUS41 KBOX 211120
TAFPVD
TAF
KPVD 211120Z 2112/2212 27006KT P6SM FEW140
     FM211600 19009KT P6SM SCT120
     FM212300 21010KT P6SM BKN080
     FM220200 21008KT P6SM VCSH BKN070=



000
FTUS41 KBOX 211120
TAFBDL
TAF
KBDL 211120Z 2112/2218 00000KT P6SM SCT130
     FM211600 22006KT P6SM SCT100
     FM212100 20011KT P6SM SCT090
     FM220000 19008KT P6SM BKN060
     FM221200 00000KT P6SM SCT060
     FM221400 30006KT P6SM SCT250=



000
FTUS41 KBOX 211120
TAFPVD
TAF
KPVD 211120Z 2112/2212 27006KT P6SM FEW140
     FM211600 19009KT P6SM SCT120
     FM212300 21010KT P6SM BKN080
     FM220200 21008KT P6SM VCSH BKN070=



000
FTUS41 KBOX 211120
TAFBDL
TAF
KBDL 211120Z 2112/2218 00000KT P6SM SCT130
     FM211600 22006KT P6SM SCT100
     FM212100 20011KT P6SM SCT090
     FM220000 19008KT P6SM BKN060
     FM221200 00000KT P6SM SCT060
     FM221400 30006KT P6SM SCT250=



000
FTUS41 KBOX 211120
TAFORH
TAF
KORH 211120Z 2112/2212 28005KT P6SM FEW140
     FM211500 22006KT P6SM SCT110
     FM220000 21009KT P6SM BKN090
     FM220800 25005KT P6SM BKN070=



000
FTUS41 KBOX 211120
TAFBOS
TAF
KBOS 211120Z 2112/2218 28005KT P6SM FEW150
     FM211500 17006KT P6SM SCT130
     FM212000 20011G18KT P6SM BKN090
     FM220500 21008KT P6SM VCSH BKN080
     FM220800 21006KT P6SM BKN080
     FM221500 00000KT P6SM VCSH BKN080=



000
FTUS41 KBOX 211120
TAFBAF
TAF
KBAF 211120Z 2112/2212 00000KT P6SM SCT130
     FM211600 24006KT P6SM SCT110
     FM212300 20009KT P6SM SCT090
     FM220000 19008KT P6SM BKN080=



000
FTUS41 KBOX 211120
TAFBAF
TAF
KBAF 211120Z 2112/2212 00000KT P6SM SCT130
     FM211600 24006KT P6SM SCT110
     FM212300 20009KT P6SM SCT090
     FM220000 19008KT P6SM BKN080=



000
FTUS41 KBOX 211120
TAFPVD
TAF
KPVD 211120Z 2112/2212 27006KT P6SM FEW140
     FM211600 19009KT P6SM SCT120
     FM212300 21010KT P6SM BKN080
     FM220200 21008KT P6SM VCSH BKN070=



000
FTUS41 KBOX 211120
TAFORH
TAF
KORH 211120Z 2112/2212 28005KT P6SM FEW140
     FM211500 22006KT P6SM SCT110
     FM220000 21009KT P6SM BKN090
     FM220800 25005KT P6SM BKN070=



000
FTUS41 KBOX 211120
TAFBDL
TAF
KBDL 211120Z 2112/2218 00000KT P6SM SCT130
     FM211600 22006KT P6SM SCT100
     FM212100 20011KT P6SM SCT090
     FM220000 19008KT P6SM BKN060
     FM221200 00000KT P6SM SCT060
     FM221400 30006KT P6SM SCT250=



000
FTUS41 KBOX 211120
TAFPVD
TAF
KPVD 211120Z 2112/2212 27006KT P6SM FEW140
     FM211600 19009KT P6SM SCT120
     FM212300 21010KT P6SM BKN080
     FM220200 21008KT P6SM VCSH BKN070=



000
FTUS41 KBOX 211120
TAFACK
TAF
KACK 211120Z 2112/2212 30006KT P6SM BKN140
     FM211400 26006KT P6SM BKN140
     FM211600 21009KT P6SM BKN100
     FM220300 22007KT P6SM -RA OVC035
     FM220600 VRB03KT 3SM RA OVC025=



000
FTUS41 KBOX 211120
TAFBOS
TAF
KBOS 211120Z 2112/2218 28005KT P6SM FEW150
     FM211500 17006KT P6SM SCT130
     FM212000 20011G18KT P6SM BKN090
     FM220500 21008KT P6SM VCSH BKN080
     FM220800 21006KT P6SM BKN080
     FM221500 00000KT P6SM VCSH BKN080=



000
FTUS41 KBOX 211120
TAFACK
TAF
KACK 211120Z 2112/2212 30006KT P6SM BKN140
     FM211400 26006KT P6SM BKN140
     FM211600 21009KT P6SM BKN100
     FM220300 22007KT P6SM -RA OVC035
     FM220600 VRB03KT 3SM RA OVC025=



000
FTUS41 KBOX 210821 AAA
TAFPVD
TAF AMD
KPVD 210821Z 2108/2206 28006KT P6SM SKC
     FM211500 24007KT P6SM SCT130
     FM211700 20009KT P6SM SCT110
     FM220200 21007KT P6SM VCSH BKN070=



000
FTUS41 KBOX 210821 AAA
TAFPVD
TAF AMD
KPVD 210821Z 2108/2206 28006KT P6SM SKC
     FM211500 24007KT P6SM SCT130
     FM211700 20009KT P6SM SCT110
     FM220200 21007KT P6SM VCSH BKN070=



000
FTUS41 KBOX 210821 AAA
TAFORH
TAF AMD
KORH 210821Z 2108/2206 25007KT P6SM SKC
     FM212300 21008KT P6SM BKN090=



000
FTUS41 KBOX 210821 AAA
TAFORH
TAF AMD
KORH 210821Z 2108/2206 25007KT P6SM SKC
     FM212300 21008KT P6SM BKN090=



000
FTUS41 KBOX 210820 AAA
TAFBDL
TAF AMD
KBDL 210820Z 2108/2212 VRB03KT P6SM SCT200
     FM211500 24005KT P6SM SCT110
     FM211800 22007KT P6SM BKN090
     FM220500 VRB03KT P6SM VCSH BKN060=



000
FTUS41 KBOX 210820 AAA
TAFBDL
TAF AMD
KBDL 210820Z 2108/2212 VRB03KT P6SM SCT200
     FM211500 24005KT P6SM SCT110
     FM211800 22007KT P6SM BKN090
     FM220500 VRB03KT P6SM VCSH BKN060=



000
FTUS41 KBOX 210819 AAA
TAFBOS
TAF AMD
KBOS 210819Z 2108/2212 27008KT P6SM SKC
     FM211500 15006KT P6SM SCT130
     FM211700 18006KT P6SM SCT110
     FM220500 22007KT P6SM VCSH BKN080=



000
FTUS41 KBOX 210819 AAA
TAFBOS
TAF AMD
KBOS 210819Z 2108/2212 27008KT P6SM SKC
     FM211500 15006KT P6SM SCT130
     FM211700 18006KT P6SM SCT110
     FM220500 22007KT P6SM VCSH BKN080=



000
FTUS41 KBOX 210819 AAA
TAFBAF
TAF AMD
KBAF 210819Z 2108/2206 VRB03KT P6SM SKC
     FM211500 25005KT P6SM SCT110
     FM211800 22006KT P6SM BKN090=



000
FTUS41 KBOX 210819 AAA
TAFBAF
TAF AMD
KBAF 210819Z 2108/2206 VRB03KT P6SM SKC
     FM211500 25005KT P6SM SCT110
     FM211800 22006KT P6SM BKN090=



000
FTUS41 KBOX 210533
TAFBDL
TAF
KBDL 210533Z 2106/2212 33005KT P6SM SCT250
     FM211600 24005KT P6SM SCT110
     FM211800 22007KT P6SM BKN090
     FM220500 VRB03KT P6SM VCSH BKN060
     FM220700 VRB03KT P6SM BKN060=



000
FTUS41 KBOX 210533
TAFPVD
TAF
KPVD 210533Z 2106/2206 30005KT P6SM SKC
     FM211500 24007KT P6SM SCT130
     FM211700 20009KT P6SM SCT110
     FM220200 21007KT P6SM VCSH BKN070=



000
FTUS41 KBOX 210533
TAFORH
TAF
KORH 210533Z 2106/2206 28011KT P6SM SKC
     FM211500 25006KT P6SM SCT110
     FM212300 21008KT P6SM BKN090=



000
FTUS41 KBOX 210533
TAFBAF
TAF
KBAF 210533Z 2106/2206 33012KT P6SM SKC
     FM211600 25005KT P6SM SCT110
     FM211800 22006KT P6SM BKN090=



000
FTUS41 KBOX 210533
TAFBOS
TAF
KBOS 210533Z 2106/2212 28008KT P6SM SKC
     FM211500 15006KT P6SM SCT130
     FM211700 18006KT P6SM SCT110
     FM220500 22007KT P6SM VCSH BKN080
     FM220800 22006KT P6SM BKN080=



000
FTUS41 KBOX 210533
TAFACK
TAF
KACK 210533Z 2106/2206 34006KT P6SM SKC
     FM211400 27007KT P6SM SCT140
     FM211600 23008KT P6SM SCT120
     FM211900 21008KT P6SM BKN100
     FM212300 21009KT P6SM VCSH BKN080
     FM220300 18006KT P6SM -RA OVC030=



000
FTUS41 KBOX 210533
TAFBOS
TAF
KBOS 210533Z 2106/2212 28008KT P6SM SKC
     FM211500 15006KT P6SM SCT130
     FM211700 18006KT P6SM SCT110
     FM220500 22007KT P6SM VCSH BKN080
     FM220800 22006KT P6SM BKN080=



000
FTUS41 KBOX 210533
TAFORH
TAF
KORH 210533Z 2106/2206 28011KT P6SM SKC
     FM211500 25006KT P6SM SCT110
     FM212300 21008KT P6SM BKN090=



000
FTUS41 KBOX 210533
TAFACK
TAF
KACK 210533Z 2106/2206 34006KT P6SM SKC
     FM211400 27007KT P6SM SCT140
     FM211600 23008KT P6SM SCT120
     FM211900 21008KT P6SM BKN100
     FM212300 21009KT P6SM VCSH BKN080
     FM220300 18006KT P6SM -RA OVC030=



000
FTUS41 KBOX 210533
TAFBAF
TAF
KBAF 210533Z 2106/2206 33012KT P6SM SKC
     FM211600 25005KT P6SM SCT110
     FM211800 22006KT P6SM BKN090=



000
FTUS41 KBOX 210533
TAFBDL
TAF
KBDL 210533Z 2106/2212 33005KT P6SM SCT250
     FM211600 24005KT P6SM SCT110
     FM211800 22007KT P6SM BKN090
     FM220500 VRB03KT P6SM VCSH BKN060
     FM220700 VRB03KT P6SM BKN060=



000
FTUS41 KBOX 210533
TAFPVD
TAF
KPVD 210533Z 2106/2206 30005KT P6SM SKC
     FM211500 24007KT P6SM SCT130
     FM211700 20009KT P6SM SCT110
     FM220200 21007KT P6SM VCSH BKN070=



000
FTUS41 KBOX 202328
TAFBDL
TAF
KBDL 202328Z 2100/2206 31012KT P6SM SCT250
     FM210400 VRB03KT P6SM SCT150
     FM211600 19004KT P6SM SCT100
     FM212000 20008KT P6SM SCT090
     FM220000 19007KT P6SM BKN080=



000
FTUS41 KBOX 202328
TAFBAF
TAF
KBAF 202328Z 2100/2124 30012G25KT P6SM SCT050
     FM210200 VRB03KT P6SM FEW050 SCT250
     FM210800 29004KT P6SM SCT150
     FM211100 00000KT P6SM SCT140
     FM212200 22006KT P6SM SCT090=



000
FTUS41 KBOX 202328
TAFACK
TAF
KACK 202328Z 2100/2124 30010KT P6SM SCT060
     FM211100 29006KT P6SM SCT150
     FM211700 22006KT P6SM BKN110
     FM212200 20010G17KT P6SM BKN070=



000
FTUS41 KBOX 202328
TAFORH
TAF
KORH 202328Z 2100/2124 30010KT P6SM SCT050
     FM211400 25005KT P6SM SCT130
     FM212300 21009KT P6SM SCT090=



000
FTUS41 KBOX 202328
TAFBAF
TAF
KBAF 202328Z 2100/2124 30012G25KT P6SM SCT050
     FM210200 VRB03KT P6SM FEW050 SCT250
     FM210800 29004KT P6SM SCT150
     FM211100 00000KT P6SM SCT140
     FM212200 22006KT P6SM SCT090=



000
FTUS41 KBOX 202328
TAFPVD
TAF
KPVD 202328Z 2100/2124 33012G24KT P6SM SCT250
     FM210400 30004KT P6SM SCT150
     FM211400 21005KT P6SM SCT130
     FM211700 17010KT P6SM SCT110
     FM212100 20011G18KT P6SM BKN090=



000
FTUS41 KBOX 202328
TAFBOS
TAF
KBOS 202328Z 2100/2206 31012G20KT P6SM SCT060 BKN250
     FM210200 31008KT P6SM SCT250
     FM211200 28005KT P6SM FEW150
     FM211500 10007KT P6SM SCT140
     FM212000 17010KT P6SM SCT100
     FM220100 21010KT P6SM SCT090=



000
FTUS41 KBOX 202328
TAFBAF
TAF
KBAF 202328Z 2100/2124 30012G25KT P6SM SCT050
     FM210200 VRB03KT P6SM FEW050 SCT250
     FM210800 29004KT P6SM SCT150
     FM211100 00000KT P6SM SCT140
     FM212200 22006KT P6SM SCT090=



000
FTUS41 KBOX 202328
TAFORH
TAF
KORH 202328Z 2100/2124 30010KT P6SM SCT050
     FM211400 25005KT P6SM SCT130
     FM212300 21009KT P6SM SCT090=



000
FTUS41 KBOX 202328
TAFPVD
TAF
KPVD 202328Z 2100/2124 33012G24KT P6SM SCT250
     FM210400 30004KT P6SM SCT150
     FM211400 21005KT P6SM SCT130
     FM211700 17010KT P6SM SCT110
     FM212100 20011G18KT P6SM BKN090=



000
FTUS41 KBOX 202328
TAFBOS
TAF
KBOS 202328Z 2100/2206 31012G20KT P6SM SCT060 BKN250
     FM210200 31008KT P6SM SCT250
     FM211200 28005KT P6SM FEW150
     FM211500 10007KT P6SM SCT140
     FM212000 17010KT P6SM SCT100
     FM220100 21010KT P6SM SCT090=



000
FTUS41 KBOX 202328
TAFACK
TAF
KACK 202328Z 2100/2124 30010KT P6SM SCT060
     FM211100 29006KT P6SM SCT150
     FM211700 22006KT P6SM BKN110
     FM212200 20010G17KT P6SM BKN070=



000
FTUS41 KBOX 202328
TAFBDL
TAF
KBDL 202328Z 2100/2206 31012KT P6SM SCT250
     FM210400 VRB03KT P6SM SCT150
     FM211600 19004KT P6SM SCT100
     FM212000 20008KT P6SM SCT090
     FM220000 19007KT P6SM BKN080=



000
FTUS41 KBOX 202328
TAFACK
TAF
KACK 202328Z 2100/2124 30010KT P6SM SCT060
     FM211100 29006KT P6SM SCT150
     FM211700 22006KT P6SM BKN110
     FM212200 20010G17KT P6SM BKN070=



000
FTUS41 KBOX 202328
TAFPVD
TAF
KPVD 202328Z 2100/2124 33012G24KT P6SM SCT250
     FM210400 30004KT P6SM SCT150
     FM211400 21005KT P6SM SCT130
     FM211700 17010KT P6SM SCT110
     FM212100 20011G18KT P6SM BKN090=



000
FTUS41 KBOX 202328
TAFORH
TAF
KORH 202328Z 2100/2124 30010KT P6SM SCT050
     FM211400 25005KT P6SM SCT130
     FM212300 21009KT P6SM SCT090=



000
FTUS41 KBOX 202328
TAFBOS
TAF
KBOS 202328Z 2100/2206 31012G20KT P6SM SCT060 BKN250
     FM210200 31008KT P6SM SCT250
     FM211200 28005KT P6SM FEW150
     FM211500 10007KT P6SM SCT140
     FM212000 17010KT P6SM SCT100
     FM220100 21010KT P6SM SCT090=



000
FTUS41 KBOX 202328
TAFBDL
TAF
KBDL 202328Z 2100/2206 31012KT P6SM SCT250
     FM210400 VRB03KT P6SM SCT150
     FM211600 19004KT P6SM SCT100
     FM212000 20008KT P6SM SCT090
     FM220000 19007KT P6SM BKN080=



000
FTUS41 KBOX 202328
TAFBAF
TAF
KBAF 202328Z 2100/2124 30012G25KT P6SM SCT050
     FM210200 VRB03KT P6SM FEW050 SCT250
     FM210800 29004KT P6SM SCT150
     FM211100 00000KT P6SM SCT140
     FM212200 22006KT P6SM SCT090=



000
FTUS41 KBOX 202328
TAFACK
TAF
KACK 202328Z 2100/2124 30010KT P6SM SCT060
     FM211100 29006KT P6SM SCT150
     FM211700 22006KT P6SM BKN110
     FM212200 20010G17KT P6SM BKN070=



000
FTUS41 KBOX 202328
TAFBDL
TAF
KBDL 202328Z 2100/2206 31012KT P6SM SCT250
     FM210400 VRB03KT P6SM SCT150
     FM211600 19004KT P6SM SCT100
     FM212000 20008KT P6SM SCT090
     FM220000 19007KT P6SM BKN080=



000
FTUS41 KBOX 202328
TAFPVD
TAF
KPVD 202328Z 2100/2124 33012G24KT P6SM SCT250
     FM210400 30004KT P6SM SCT150
     FM211400 21005KT P6SM SCT130
     FM211700 17010KT P6SM SCT110
     FM212100 20011G18KT P6SM BKN090=



000
FTUS41 KBOX 202328
TAFORH
TAF
KORH 202328Z 2100/2124 30010KT P6SM SCT050
     FM211400 25005KT P6SM SCT130
     FM212300 21009KT P6SM SCT090=



000
FTUS41 KBOX 202328
TAFBOS
TAF
KBOS 202328Z 2100/2206 31012G20KT P6SM SCT060 BKN250
     FM210200 31008KT P6SM SCT250
     FM211200 28005KT P6SM FEW150
     FM211500 10007KT P6SM SCT140
     FM212000 17010KT P6SM SCT100
     FM220100 21010KT P6SM SCT090=



000
FTUS41 KBOX 202004 AAA
TAFPVD
TAF AMD
KPVD 202004Z 2020/2118 30014G26KT P6SM FEW050
     FM210000 31007KT P6SM FEW250
     FM210900 VRB03KT P6SM SCT150
     FM211500 20007KT P6SM SCT130=



000
FTUS41 KBOX 202004 AAA
TAFPVD
TAF AMD
KPVD 202004Z 2020/2118 30014G26KT P6SM FEW050
     FM210000 31007KT P6SM FEW250
     FM210900 VRB03KT P6SM SCT150
     FM211500 20007KT P6SM SCT130=



000
FTUS41 KBOX 202002 AAA
TAFBDL
TAF AMD
KBDL 202002Z 2020/2124 31014G25KT P6SM SCT050
     FM202330 30011KT P6SM FEW050
     FM210200 30007KT P6SM SCT200
     FM210600 VRB03KT P6SM SCT150
     FM211800 21007KT P6SM SCT090
     FM212100 20011KT P6SM SCT080=



000
FTUS41 KBOX 202002 AAA
TAFBDL
TAF AMD
KBDL 202002Z 2020/2124 31014G25KT P6SM SCT050
     FM202330 30011KT P6SM FEW050
     FM210200 30007KT P6SM SCT200
     FM210600 VRB03KT P6SM SCT150
     FM211800 21007KT P6SM SCT090
     FM212100 20011KT P6SM SCT080=



000
FTUS41 KBOX 202001 AAA
TAFBOS
TAF AMD
KBOS 202001Z 2020/2124 31017G28KT P6SM FEW050
     FM210000 31013KT P6SM FEW050
     FM210400 30009KT P6SM FEW200
     FM211100 26007KT P6SM SCT140
     FM211400 22007KT P6SM SCT140
     FM211700 18009KT P6SM SCT110=



000
FTUS41 KBOX 202001 AAA
TAFBOS
TAF AMD
KBOS 202001Z 2020/2124 31017G28KT P6SM FEW050
     FM210000 31013KT P6SM FEW050
     FM210400 30009KT P6SM FEW200
     FM211100 26007KT P6SM SCT140
     FM211400 22007KT P6SM SCT140
     FM211700 18009KT P6SM SCT110=



000
FTUS41 KBOX 201735
TAFBDL
TAF
KBDL 201735Z 2018/2124 31014G28KT P6SM SCT050
     FM202300 30011G19KT P6SM FEW050
     FM210200 30007KT P6SM SCT200
     FM210600 VRB03KT P6SM SCT150
     FM211800 21007KT P6SM SCT090
     FM212100 20011KT P6SM SCT080=



000
FTUS41 KBOX 201735
TAFBAF
TAF
KBAF 201735Z 2018/2118 33014G29KT P6SM SCT050
     FM202200 33013G21KT P6SM FEW050
     FM210000 33009KT P6SM FEW250
     FM210300 32005KT P6SM SCT200
     FM211400 25004KT P6SM BKN120=



000
FTUS41 KBOX 201735
TAFORH
TAF
KORH 201735Z 2018/2118 29014G28KT P6SM SCT045
     FM202300 29009KT P6SM FEW250
     FM211400 25007KT P6SM SCT130=



000
FTUS41 KBOX 201735
TAFACK
TAF
KACK 201735Z 2018/2118 27016G23KT P6SM FEW050
     FM210000 30009KT P6SM FEW050
     FM210800 33005KT P6SM SCT150
     FM211300 27007KT P6SM BKN140
     FM211500 22008KT P6SM BKN130=



000
FTUS41 KBOX 201735
TAFORH
TAF
KORH 201735Z 2018/2118 29014G28KT P6SM SCT045
     FM202300 29009KT P6SM FEW250
     FM211400 25007KT P6SM SCT130=



000
FTUS41 KBOX 201735
TAFBAF
TAF
KBAF 201735Z 2018/2118 33014G29KT P6SM SCT050
     FM202200 33013G21KT P6SM FEW050
     FM210000 33009KT P6SM FEW250
     FM210300 32005KT P6SM SCT200
     FM211400 25004KT P6SM BKN120=



000
FTUS41 KBOX 201735
TAFBOS
TAF
KBOS 201735Z 2018/2124 30016G27KT P6SM SCT050
     FM210000 31013KT P6SM FEW050
     FM210400 30009KT P6SM FEW200
     FM211100 26007KT P6SM SCT140
     FM211400 22007KT P6SM SCT140
     FM211700 18009KT P6SM SCT110=



000
FTUS41 KBOX 201735
TAFBOS
TAF
KBOS 201735Z 2018/2124 30016G27KT P6SM SCT050
     FM210000 31013KT P6SM FEW050
     FM210400 30009KT P6SM FEW200
     FM211100 26007KT P6SM SCT140
     FM211400 22007KT P6SM SCT140
     FM211700 18009KT P6SM SCT110=



000
FTUS41 KBOX 201735
TAFBOS
TAF
KBOS 201735Z 2018/2124 30016G27KT P6SM SCT050
     FM210000 31013KT P6SM FEW050
     FM210400 30009KT P6SM FEW200
     FM211100 26007KT P6SM SCT140
     FM211400 22007KT P6SM SCT140
     FM211700 18009KT P6SM SCT110=



000
FTUS41 KBOX 201735
TAFPVD
TAF
KPVD 201735Z 2018/2118 30012G26KT P6SM SCT050
     FM202200 31011KT P6SM FEW050
     FM210100 31007KT P6SM SCT200
     FM210900 VRB03KT P6SM SCT150
     FM211500 20007KT P6SM SCT130=



000
FTUS41 KBOX 201735
TAFBOS
TAF
KBOS 201735Z 2018/2124 30016G27KT P6SM SCT050
     FM210000 31013KT P6SM FEW050
     FM210400 30009KT P6SM FEW200
     FM211100 26007KT P6SM SCT140
     FM211400 22007KT P6SM SCT140
     FM211700 18009KT P6SM SCT110=



000
FTUS41 KBOX 201735
TAFPVD
TAF
KPVD 201735Z 2018/2118 30012G26KT P6SM SCT050
     FM202200 31011KT P6SM FEW050
     FM210100 31007KT P6SM SCT200
     FM210900 VRB03KT P6SM SCT150
     FM211500 20007KT P6SM SCT130=



000
FTUS41 KBOX 201735
TAFACK
TAF
KACK 201735Z 2018/2118 27016G23KT P6SM FEW050
     FM210000 30009KT P6SM FEW050
     FM210800 33005KT P6SM SCT150
     FM211300 27007KT P6SM BKN140
     FM211500 22008KT P6SM BKN130=



000
FTUS41 KBOX 201735
TAFBAF
TAF
KBAF 201735Z 2018/2118 33014G29KT P6SM SCT050
     FM202200 33013G21KT P6SM FEW050
     FM210000 33009KT P6SM FEW250
     FM210300 32005KT P6SM SCT200
     FM211400 25004KT P6SM BKN120=



000
FTUS41 KBOX 201735
TAFPVD
TAF
KPVD 201735Z 2018/2118 30012G26KT P6SM SCT050
     FM202200 31011KT P6SM FEW050
     FM210100 31007KT P6SM SCT200
     FM210900 VRB03KT P6SM SCT150
     FM211500 20007KT P6SM SCT130=



000
FTUS41 KBOX 201735
TAFBAF
TAF
KBAF 201735Z 2018/2118 33014G29KT P6SM SCT050
     FM202200 33013G21KT P6SM FEW050
     FM210000 33009KT P6SM FEW250
     FM210300 32005KT P6SM SCT200
     FM211400 25004KT P6SM BKN120=



000
FTUS41 KBOX 201735
TAFPVD
TAF
KPVD 201735Z 2018/2118 30012G26KT P6SM SCT050
     FM202200 31011KT P6SM FEW050
     FM210100 31007KT P6SM SCT200
     FM210900 VRB03KT P6SM SCT150
     FM211500 20007KT P6SM SCT130=



000
FTUS41 KBOX 201735
TAFBDL
TAF
KBDL 201735Z 2018/2124 31014G28KT P6SM SCT050
     FM202300 30011G19KT P6SM FEW050
     FM210200 30007KT P6SM SCT200
     FM210600 VRB03KT P6SM SCT150
     FM211800 21007KT P6SM SCT090
     FM212100 20011KT P6SM SCT080=



000
FTUS41 KBOX 201735
TAFBDL
TAF
KBDL 201735Z 2018/2124 31014G28KT P6SM SCT050
     FM202300 30011G19KT P6SM FEW050
     FM210200 30007KT P6SM SCT200
     FM210600 VRB03KT P6SM SCT150
     FM211800 21007KT P6SM SCT090
     FM212100 20011KT P6SM SCT080=



000
FTUS41 KBOX 201735
TAFACK
TAF
KACK 201735Z 2018/2118 27016G23KT P6SM FEW050
     FM210000 30009KT P6SM FEW050
     FM210800 33005KT P6SM SCT150
     FM211300 27007KT P6SM BKN140
     FM211500 22008KT P6SM BKN130=



000
FTUS41 KBOX 201735
TAFBDL
TAF
KBDL 201735Z 2018/2124 31014G28KT P6SM SCT050
     FM202300 30011G19KT P6SM FEW050
     FM210200 30007KT P6SM SCT200
     FM210600 VRB03KT P6SM SCT150
     FM211800 21007KT P6SM SCT090
     FM212100 20011KT P6SM SCT080=



000
FTUS41 KBOX 201735
TAFORH
TAF
KORH 201735Z 2018/2118 29014G28KT P6SM SCT045
     FM202300 29009KT P6SM FEW250
     FM211400 25007KT P6SM SCT130=



000
FTUS41 KBOX 201735
TAFORH
TAF
KORH 201735Z 2018/2118 29014G28KT P6SM SCT045
     FM202300 29009KT P6SM FEW250
     FM211400 25007KT P6SM SCT130=



000
FTUS41 KBOX 201735
TAFACK
TAF
KACK 201735Z 2018/2118 27016G23KT P6SM FEW050
     FM210000 30009KT P6SM FEW050
     FM210800 33005KT P6SM SCT150
     FM211300 27007KT P6SM BKN140
     FM211500 22008KT P6SM BKN130=



000
FTUS41 KBOX 201412 AAA
TAFORH
TAF AMD
KORH 201412Z 2014/2112 29015G27KT P6SM SCT045
     FM202300 29009KT P6SM FEW250
     FM210600 28005KT P6SM FEW150=



000
FTUS41 KBOX 201412 AAA
TAFORH
TAF AMD
KORH 201412Z 2014/2112 29015G27KT P6SM SCT045
     FM202300 29009KT P6SM FEW250
     FM210600 28005KT P6SM FEW150=



000
FTUS41 KBOX 201412 AAA
TAFORH
TAF AMD
KORH 201412Z 2014/2112 29015G27KT P6SM SCT045
     FM202300 29009KT P6SM FEW250
     FM210600 28005KT P6SM FEW150=



000
FTUS41 KBOX 201412 AAA
TAFORH
TAF AMD
KORH 201412Z 2014/2112 29015G27KT P6SM SCT045
     FM202300 29009KT P6SM FEW250
     FM210600 28005KT P6SM FEW150=



000
FTUS41 KBOX 201411 AAA
TAFPVD
TAF AMD
KPVD 201411Z 2014/2112 30012G23KT P6SM SCT050
     FM202230 32008KT P6SM FEW050
     FM210300 31006KT P6SM FEW200=



000
FTUS41 KBOX 201411 AAA
TAFPVD
TAF AMD
KPVD 201411Z 2014/2112 30012G23KT P6SM SCT050
     FM202230 32008KT P6SM FEW050
     FM210300 31006KT P6SM FEW200=



000
FTUS41 KBOX 201410 AAB
TAFBDL
TAF AMD
KBDL 201410Z 2014/2118 32016G27KT P6SM SCT040
     FM202200 30009KT P6SM FEW250
     FM210400 29005KT P6SM SCT150
     FM211700 24006KT P6SM SCT100=



000
FTUS41 KBOX 201408 AAA
TAFBOS
TAF AMD
KBOS 201408Z 2014/2118 29013G25KT P6SM SCT045
     FM202300 30012KT P6SM FEW200
     FM210400 29008KT P6SM FEW200
     FM211400 25007KT P6SM SCT130
     FM211700 20007KT P6SM SCT120=



000
FTUS41 KBOX 201408 AAA
TAFBOS
TAF AMD
KBOS 201408Z 2014/2118 29013G25KT P6SM SCT045
     FM202300 30012KT P6SM FEW200
     FM210400 29008KT P6SM FEW200
     FM211400 25007KT P6SM SCT130
     FM211700 20007KT P6SM SCT120=



000
FTUS41 KBOX 201303 AAA
TAFPVD
TAF AMD
KPVD 201303Z 2013/2118 32014G23KT P6SM SCT040
     FM210300 31006KT P6SM FEW200=



000
FTUS41 KBOX 201303 AAA
TAFPVD
TAF AMD
KPVD 201303Z 2013/2118 32014G23KT P6SM SCT040
     FM210300 31006KT P6SM FEW200=



000
FTUS41 KBOX 201223 AAA
TAFBDL
TAF AMD
KBDL 201223Z 2012/2118 32016G27KT P6SM SCT040
     FM202200 30009KT P6SM FEW250
     FM210400 29005KT P6SM SCT150
     FM211700 24006KT P6SM SCT100=



000
FTUS41 KBOX 201223 AAA
TAFBDL
TAF AMD
KBDL 201223Z 2012/2118 32016G27KT P6SM SCT040
     FM202200 30009KT P6SM FEW250
     FM210400 29005KT P6SM SCT150
     FM211700 24006KT P6SM SCT100=



000
FTUS41 KBOX 201223 AAA
TAFBDL
TAF AMD
KBDL 201223Z 2012/2118 32016G27KT P6SM SCT040
     FM202200 30009KT P6SM FEW250
     FM210400 29005KT P6SM SCT150
     FM211700 24006KT P6SM SCT100=



000
FTUS41 KBOX 201223 AAA
TAFBAF
TAF AMD
KBAF 201223Z 2012/2112 32015G27KT P6SM SCT040
     FM202300 31008KT P6SM FEW250
     FM210400 29004KT P6SM SCT150
     FM210600 00000KT P6SM SCT150=



000
FTUS41 KBOX 201223 AAA
TAFBAF
TAF AMD
KBAF 201223Z 2012/2112 32015G27KT P6SM SCT040
     FM202300 31008KT P6SM FEW250
     FM210400 29004KT P6SM SCT150
     FM210600 00000KT P6SM SCT150=



000
FTUS41 KBOX 201223 AAA
TAFBDL
TAF AMD
KBDL 201223Z 2012/2118 32016G27KT P6SM SCT040
     FM202200 30009KT P6SM FEW250
     FM210400 29005KT P6SM SCT150
     FM211700 24006KT P6SM SCT100=



000
FTUS41 KBOX 201120
TAFBOS
TAF
KBOS 201120Z 2012/2118 30011G18KT P6SM FEW250
     FM201400 30013G23KT P6SM SCT045
     FM202300 30012KT P6SM FEW200
     FM210400 29008KT P6SM FEW200
     FM211400 25007KT P6SM SCT130
     FM211700 20007KT P6SM SCT120=



000
FTUS41 KBOX 201120
TAFORH
TAF
KORH 201120Z 2012/2112 30012G22KT P6SM SCT045
     FM202300 29009KT P6SM FEW250
     FM210600 28005KT P6SM FEW150=



000
FTUS41 KBOX 201120
TAFBAF
TAF
KBAF 201120Z 2012/2112 32012G22KT P6SM SCT045
     FM202300 31008KT P6SM FEW250
     FM210400 29004KT P6SM SCT150
     FM210600 00000KT P6SM SCT150=



000
FTUS41 KBOX 201120
TAFACK
TAF
KACK 201120Z 2012/2112 30011KT P6SM FEW250
     FM210400 32007KT P6SM FEW150=



000
FTUS41 KBOX 201120
TAFBOS
TAF
KBOS 201120Z 2012/2118 30011G18KT P6SM FEW250
     FM201400 30013G23KT P6SM SCT045
     FM202300 30012KT P6SM FEW200
     FM210400 29008KT P6SM FEW200
     FM211400 25007KT P6SM SCT130
     FM211700 20007KT P6SM SCT120=



000
FTUS41 KBOX 201120
TAFBOS
TAF
KBOS 201120Z 2012/2118 30011G18KT P6SM FEW250
     FM201400 30013G23KT P6SM SCT045
     FM202300 30012KT P6SM FEW200
     FM210400 29008KT P6SM FEW200
     FM211400 25007KT P6SM SCT130
     FM211700 20007KT P6SM SCT120=



000
FTUS41 KBOX 201120
TAFPVD
TAF
KPVD 201120Z 2012/2112 31010KT P6SM FEW045
     FM201400 31012G23KT P6SM SCT040
     FM210300 31006KT P6SM FEW200=



000
FTUS41 KBOX 201120
TAFBAF
TAF
KBAF 201120Z 2012/2112 32012G22KT P6SM SCT045
     FM202300 31008KT P6SM FEW250
     FM210400 29004KT P6SM SCT150
     FM210600 00000KT P6SM SCT150=



000
FTUS41 KBOX 201120
TAFBDL
TAF
KBDL 201120Z 2012/2118 31009KT P6SM FEW250
     FM201300 31013G23KT P6SM SCT250
     FM202300 30009KT P6SM FEW250
     FM210400 29005KT P6SM SCT150
     FM211700 24006KT P6SM SCT100=



000
FTUS41 KBOX 201120
TAFPVD
TAF
KPVD 201120Z 2012/2112 31010KT P6SM FEW045
     FM201400 31012G23KT P6SM SCT040
     FM210300 31006KT P6SM FEW200=



000
FTUS41 KBOX 201120
TAFACK
TAF
KACK 201120Z 2012/2112 30011KT P6SM FEW250
     FM210400 32007KT P6SM FEW150=



000
FTUS41 KBOX 201120
TAFORH
TAF
KORH 201120Z 2012/2112 30012G22KT P6SM SCT045
     FM202300 29009KT P6SM FEW250
     FM210600 28005KT P6SM FEW150=



000
FTUS41 KBOX 201120
TAFACK
TAF
KACK 201120Z 2012/2112 30011KT P6SM FEW250
     FM210400 32007KT P6SM FEW150=



000
FTUS41 KBOX 201120
TAFBAF
TAF
KBAF 201120Z 2012/2112 32012G22KT P6SM SCT045
     FM202300 31008KT P6SM FEW250
     FM210400 29004KT P6SM SCT150
     FM210600 00000KT P6SM SCT150=



000
FTUS41 KBOX 201120
TAFORH
TAF
KORH 201120Z 2012/2112 30012G22KT P6SM SCT045
     FM202300 29009KT P6SM FEW250
     FM210600 28005KT P6SM FEW150=



000
FTUS41 KBOX 201120
TAFBDL
TAF
KBDL 201120Z 2012/2118 31009KT P6SM FEW250
     FM201300 31013G23KT P6SM SCT250
     FM202300 30009KT P6SM FEW250
     FM210400 29005KT P6SM SCT150
     FM211700 24006KT P6SM SCT100=



000
FTUS41 KBOX 201120
TAFPVD
TAF
KPVD 201120Z 2012/2112 31010KT P6SM FEW045
     FM201400 31012G23KT P6SM SCT040
     FM210300 31006KT P6SM FEW200=



000
FTUS41 KBOX 201120
TAFACK
TAF
KACK 201120Z 2012/2112 30011KT P6SM FEW250
     FM210400 32007KT P6SM FEW150=



000
FTUS41 KBOX 201120
TAFBOS
TAF
KBOS 201120Z 2012/2118 30011G18KT P6SM FEW250
     FM201400 30013G23KT P6SM SCT045
     FM202300 30012KT P6SM FEW200
     FM210400 29008KT P6SM FEW200
     FM211400 25007KT P6SM SCT130
     FM211700 20007KT P6SM SCT120=



000
FTUS41 KBOX 201120
TAFBDL
TAF
KBDL 201120Z 2012/2118 31009KT P6SM FEW250
     FM201300 31013G23KT P6SM SCT250
     FM202300 30009KT P6SM FEW250
     FM210400 29005KT P6SM SCT150
     FM211700 24006KT P6SM SCT100=



000
FTUS41 KBOX 201120
TAFBDL
TAF
KBDL 201120Z 2012/2118 31009KT P6SM FEW250
     FM201300 31013G23KT P6SM SCT250
     FM202300 30009KT P6SM FEW250
     FM210400 29005KT P6SM SCT150
     FM211700 24006KT P6SM SCT100=



000
FTUS41 KBOX 201120
TAFBAF
TAF
KBAF 201120Z 2012/2112 32012G22KT P6SM SCT045
     FM202300 31008KT P6SM FEW250
     FM210400 29004KT P6SM SCT150
     FM210600 00000KT P6SM SCT150=



000
FTUS41 KBOX 201120
TAFPVD
TAF
KPVD 201120Z 2012/2112 31010KT P6SM FEW045
     FM201400 31012G23KT P6SM SCT040
     FM210300 31006KT P6SM FEW200=



000
FTUS41 KBOX 201120
TAFORH
TAF
KORH 201120Z 2012/2112 30012G22KT P6SM SCT045
     FM202300 29009KT P6SM FEW250
     FM210600 28005KT P6SM FEW150=



000
FTUS41 KBOX 200825 AAA
TAFACK
TAF AMD
KACK 200825Z 2008/2106 26007KT 1/4SM FG VV002
     FM201000 30011KT P6SM SCT250
     FM210400 32007KT P6SM FEW150=



000
FTUS41 KBOX 200820 AAA
TAFPVD
TAF AMD
KPVD 200820Z 2008/2106 31010KT P6SM SKC
     FM201500 31012G21KT P6SM SCT040
     FM210000 32008KT P6SM FEW250=



000
FTUS41 KBOX 200820 AAA
TAFPVD
TAF AMD
KPVD 200820Z 2008/2106 31010KT P6SM SKC
     FM201500 31012G21KT P6SM SCT040
     FM210000 32008KT P6SM FEW250=



000
FTUS41 KBOX 200820 AAA
TAFORH
TAF AMD
KORH 200820Z 2008/2106 30017G23KT P6SM SKC
     FM201700 29012G21KT P6SM BKN045
     FM202300 29009KT P6SM FEW250=



000
FTUS41 KBOX 200820 AAA
TAFORH
TAF AMD
KORH 200820Z 2008/2106 30017G23KT P6SM SKC
     FM201700 29012G21KT P6SM BKN045
     FM202300 29009KT P6SM FEW250=



000
FTUS41 KBOX 200820 AAA
TAFORH
TAF AMD
KORH 200820Z 2008/2106 30017G23KT P6SM SKC
     FM201700 29012G21KT P6SM BKN045
     FM202300 29009KT P6SM FEW250=



000
FTUS41 KBOX 200820 AAA
TAFORH
TAF AMD
KORH 200820Z 2008/2106 30017G23KT P6SM SKC
     FM201700 29012G21KT P6SM BKN045
     FM202300 29009KT P6SM FEW250=



000
FTUS41 KBOX 200819 AAA
TAFBAF
TAF AMD
KBAF 200819Z 2008/2106 34012G22KT P6SM SKC
     FM201500 32012G21KT P6SM SCT040
     FM210000 31008KT P6SM FEW250
     FM210400 29004KT P6SM SCT150=



000
FTUS41 KBOX 200819 AAA
TAFBAF
TAF AMD
KBAF 200819Z 2008/2106 34012G22KT P6SM SKC
     FM201500 32012G21KT P6SM SCT040
     FM210000 31008KT P6SM FEW250
     FM210400 29004KT P6SM SCT150=



000
FTUS41 KBOX 200819 AAA
TAFBAF
TAF AMD
KBAF 200819Z 2008/2106 34012G22KT P6SM SKC
     FM201500 32012G21KT P6SM SCT040
     FM210000 31008KT P6SM FEW250
     FM210400 29004KT P6SM SCT150=



000
FTUS41 KBOX 200818 AAA
TAFBDL
TAF AMD
KBDL 200818Z 2008/2112 32008KT P6SM SKC
     FM201500 31012G22KT P6SM SCT050
     FM210000 30008KT P6SM FEW250
     FM210500 29004KT P6SM SCT150=



000
FTUS41 KBOX 200818 AAA
TAFBDL
TAF AMD
KBDL 200818Z 2008/2112 32008KT P6SM SKC
     FM201500 31012G22KT P6SM SCT050
     FM210000 30008KT P6SM FEW250
     FM210500 29004KT P6SM SCT150=



000
FTUS41 KBOX 200818 AAA
TAFBOS
TAF AMD
KBOS 200818Z 2008/2112 29013KT P6SM FEW060
     FM201400 29013G22KT P6SM SCT045
     FM210000 29008KT P6SM FEW200=



000
FTUS41 KBOX 200818 AAA
TAFBDL
TAF AMD
KBDL 200818Z 2008/2112 32008KT P6SM SKC
     FM201500 31012G22KT P6SM SCT050
     FM210000 30008KT P6SM FEW250
     FM210500 29004KT P6SM SCT150=



000
FTUS41 KBOX 200818 AAA
TAFBOS
TAF AMD
KBOS 200818Z 2008/2112 29013KT P6SM FEW060
     FM201400 29013G22KT P6SM SCT045
     FM210000 29008KT P6SM FEW200=



000
FTUS41 KBOX 200818 AAA
TAFBOS
TAF AMD
KBOS 200818Z 2008/2112 29013KT P6SM FEW060
     FM201400 29013G22KT P6SM SCT045
     FM210000 29008KT P6SM FEW200=



000
FTUS41 KBOX 200818 AAA
TAFBOS
TAF AMD
KBOS 200818Z 2008/2112 29013KT P6SM FEW060
     FM201400 29013G22KT P6SM SCT045
     FM210000 29008KT P6SM FEW200=



000
FTUS41 KBOX 200818 AAA
TAFBDL
TAF AMD
KBDL 200818Z 2008/2112 32008KT P6SM SKC
     FM201500 31012G22KT P6SM SCT050
     FM210000 30008KT P6SM FEW250
     FM210500 29004KT P6SM SCT150=



    US Dept of Commerce
    National Oceanic and Atmospheric Administration
    National Weather Service
    1325 East West Highway
    Silver Spring, MD 20910
    Page Author: NWS Internet Services Team
Disclaimer
Information Quality
Credits
Glossary
Privacy Policy
Freedom of Information Act (FOIA)
About Us
Career Opportunities